<?xml version="1.0" encoding="utf-8"?>
<gpx xmlns:xsi="http://www.w3.org/2001/XMLSchema-instance" xmlns:xsd="http://www.w3.org/2001/XMLSchema" version="1.1" creator="Shapelink.com" xmlns="http://www.topografix.com/GPX/1/1" xmlns:gpxtpx="http://www.garmin.com/xmlschemas/TrackPointExtension/v1">
  <metadata>
    <name>Cykling 38.99 km, 2011-08-27</name>
    <desc></desc>
    <author><name>Alexander Engvall</name></author> 
    <time>2011-08-27T18:40:33Z</time>
  </metadata>
  <trk>
    <name>Cykling 38.99 km, 2011-08-27</name>
    <trkseg>
      <trkpt lat="59.4578133" lon="17.8043882">
        <ele>41.474</ele>
        <time>2011-08-27T18:40:33Z</time>
      </trkpt>
      <trkpt lat="59.4577254" lon="17.804512">
        <ele>40.0321</ele>
        <time>2011-08-27T18:40:37Z</time>
      </trkpt>
      <trkpt lat="59.4574839" lon="17.8047614">
        <ele>38.5901</ele>
        <time>2011-08-27T18:40:42Z</time>
      </trkpt>
      <trkpt lat="59.4572461" lon="17.8051856">
        <ele>37.1481</ele>
        <time>2011-08-27T18:40:47Z</time>
      </trkpt>
      <trkpt lat="59.4571323" lon="17.8054475">
        <ele>36.1868</ele>
        <time>2011-08-27T18:40:50Z</time>
      </trkpt>
      <trkpt lat="59.4569463" lon="17.8055677">
        <ele>34.2642</ele>
        <time>2011-08-27T18:40:54Z</time>
      </trkpt>
      <trkpt lat="59.456898" lon="17.8055307">
        <ele>33.7834</ele>
        <time>2011-08-27T18:40:55Z</time>
      </trkpt>
      <trkpt lat="59.4565488" lon="17.8052724">
        <ele>31.8607</ele>
        <time>2011-08-27T18:41:01Z</time>
      </trkpt>
      <trkpt lat="59.4560079" lon="17.8048805">
        <ele>31.8607</ele>
        <time>2011-08-27T18:41:08Z</time>
      </trkpt>
      <trkpt lat="59.4554377" lon="17.8043982">
        <ele>28.9769</ele>
        <time>2011-08-27T18:41:15Z</time>
      </trkpt>
      <trkpt lat="59.4549634" lon="17.8043307">
        <ele>26.0929</ele>
        <time>2011-08-27T18:41:20Z</time>
      </trkpt>
      <trkpt lat="59.4546987" lon="17.8044792">
        <ele>25.6123</ele>
        <time>2011-08-27T18:41:23Z</time>
      </trkpt>
      <trkpt lat="59.4541406" lon="17.8052061">
        <ele>25.1317</ele>
        <time>2011-08-27T18:41:31Z</time>
      </trkpt>
      <trkpt lat="59.453777" lon="17.805863">
        <ele>25.1317</ele>
        <time>2011-08-27T18:41:37Z</time>
      </trkpt>
      <trkpt lat="59.4534771" lon="17.8063588">
        <ele>25.6123</ele>
        <time>2011-08-27T18:41:42Z</time>
      </trkpt>
      <trkpt lat="59.4530366" lon="17.8070716">
        <ele>25.1317</ele>
        <time>2011-08-27T18:41:49Z</time>
      </trkpt>
      <trkpt lat="59.4525384" lon="17.8079596">
        <ele>23.6896</ele>
        <time>2011-08-27T18:41:57Z</time>
      </trkpt>
      <trkpt lat="59.4519635" lon="17.8091074">
        <ele>24.651</ele>
        <time>2011-08-27T18:42:07Z</time>
      </trkpt>
      <trkpt lat="59.4515885" lon="17.8099036">
        <ele>25.6123</ele>
        <time>2011-08-27T18:42:14Z</time>
      </trkpt>
      <trkpt lat="59.4511958" lon="17.8107781">
        <ele>27.5349</ele>
        <time>2011-08-27T18:42:22Z</time>
      </trkpt>
      <trkpt lat="59.4507585" lon="17.8117901">
        <ele>31.3801</ele>
        <time>2011-08-27T18:42:31Z</time>
      </trkpt>
      <trkpt lat="59.4507119" lon="17.811905">
        <ele>31.3801</ele>
        <time>2011-08-27T18:42:32Z</time>
      </trkpt>
      <trkpt lat="59.4503495" lon="17.8128138">
        <ele>30.8995</ele>
        <time>2011-08-27T18:42:40Z</time>
      </trkpt>
      <trkpt lat="59.4499287" lon="17.8139558">
        <ele>30.4188</ele>
        <time>2011-08-27T18:42:50Z</time>
      </trkpt>
      <trkpt lat="59.4496234" lon="17.814903">
        <ele>31.8607</ele>
        <time>2011-08-27T18:42:58Z</time>
      </trkpt>
      <trkpt lat="59.4494698" lon="17.8153474">
        <ele>30.8995</ele>
        <time>2011-08-27T18:43:02Z</time>
      </trkpt>
      <trkpt lat="59.4494087" lon="17.8155886">
        <ele>31.3801</ele>
        <time>2011-08-27T18:43:04Z</time>
      </trkpt>
      <trkpt lat="59.4491611" lon="17.8165021">
        <ele>31.8607</ele>
        <time>2011-08-27T18:43:12Z</time>
      </trkpt>
      <trkpt lat="59.4489797" lon="17.8173298">
        <ele>32.3416</ele>
        <time>2011-08-27T18:43:19Z</time>
      </trkpt>
      <trkpt lat="59.4487761" lon="17.8185461">
        <ele>33.3029</ele>
        <time>2011-08-27T18:43:29Z</time>
      </trkpt>
      <trkpt lat="59.448684" lon="17.8194334">
        <ele>32.3416</ele>
        <time>2011-08-27T18:43:36Z</time>
      </trkpt>
      <trkpt lat="59.4485957" lon="17.8206263">
        <ele>31.8607</ele>
        <time>2011-08-27T18:43:45Z</time>
      </trkpt>
      <trkpt lat="59.4485747" lon="17.8213026">
        <ele>30.8995</ele>
        <time>2011-08-27T18:43:50Z</time>
      </trkpt>
      <trkpt lat="59.4485687" lon="17.8222795">
        <ele>29.9381</ele>
        <time>2011-08-27T18:43:57Z</time>
      </trkpt>
      <trkpt lat="59.4485933" lon="17.8232741">
        <ele>30.8995</ele>
        <time>2011-08-27T18:44:04Z</time>
      </trkpt>
      <trkpt lat="59.4486192" lon="17.8238462">
        <ele>30.8995</ele>
        <time>2011-08-27T18:44:08Z</time>
      </trkpt>
      <trkpt lat="59.4485191" lon="17.8243701">
        <ele>30.4188</ele>
        <time>2011-08-27T18:44:12Z</time>
      </trkpt>
      <trkpt lat="59.4483733" lon="17.8244878">
        <ele>29.9381</ele>
        <time>2011-08-27T18:44:14Z</time>
      </trkpt>
      <trkpt lat="59.4477553" lon="17.8249208">
        <ele>26.5736</ele>
        <time>2011-08-27T18:44:22Z</time>
      </trkpt>
      <trkpt lat="59.4474434" lon="17.8251316">
        <ele>26.5736</ele>
        <time>2011-08-27T18:44:26Z</time>
      </trkpt>
      <trkpt lat="59.446844" lon="17.8254171">
        <ele>27.0543</ele>
        <time>2011-08-27T18:44:34Z</time>
      </trkpt>
      <trkpt lat="59.4465472" lon="17.8254941">
        <ele>27.0543</ele>
        <time>2011-08-27T18:44:38Z</time>
      </trkpt>
      <trkpt lat="59.4462373" lon="17.8255316">
        <ele>27.5349</ele>
        <time>2011-08-27T18:44:42Z</time>
      </trkpt>
      <trkpt lat="59.4456049" lon="17.8254784">
        <ele>28.0155</ele>
        <time>2011-08-27T18:44:50Z</time>
      </trkpt>
      <trkpt lat="59.4452937" lon="17.8254222">
        <ele>28.9769</ele>
        <time>2011-08-27T18:44:54Z</time>
      </trkpt>
      <trkpt lat="59.4444327" lon="17.8252035">
        <ele>31.3801</ele>
        <time>2011-08-27T18:45:05Z</time>
      </trkpt>
      <trkpt lat="59.4437305" lon="17.8251005">
        <ele>33.3029</ele>
        <time>2011-08-27T18:45:14Z</time>
      </trkpt>
      <trkpt lat="59.4431257" lon="17.8251228">
        <ele>34.7449</ele>
        <time>2011-08-27T18:45:22Z</time>
      </trkpt>
      <trkpt lat="59.4425896" lon="17.8252399">
        <ele>35.2255</ele>
        <time>2011-08-27T18:45:29Z</time>
      </trkpt>
      <trkpt lat="59.4420598" lon="17.825449">
        <ele>34.7449</ele>
        <time>2011-08-27T18:45:36Z</time>
      </trkpt>
      <trkpt lat="59.4414451" lon="17.8258081">
        <ele>33.3029</ele>
        <time>2011-08-27T18:45:44Z</time>
      </trkpt>
      <trkpt lat="59.4407404" lon="17.8262518">
        <ele>32.8223</ele>
        <time>2011-08-27T18:45:53Z</time>
      </trkpt>
      <trkpt lat="59.4401083" lon="17.826542">
        <ele>32.8223</ele>
        <time>2011-08-27T18:46:01Z</time>
      </trkpt>
      <trkpt lat="59.4397943" lon="17.8266183">
        <ele>32.3416</ele>
        <time>2011-08-27T18:46:05Z</time>
      </trkpt>
      <trkpt lat="59.4391275" lon="17.8265557">
        <ele>31.8607</ele>
        <time>2011-08-27T18:46:13Z</time>
      </trkpt>
      <trkpt lat="59.4388781" lon="17.8264613">
        <ele>31.8607</ele>
        <time>2011-08-27T18:46:16Z</time>
      </trkpt>
      <trkpt lat="59.438564" lon="17.8265139">
        <ele>33.3029</ele>
        <time>2011-08-27T18:46:20Z</time>
      </trkpt>
      <trkpt lat="59.4384419" lon="17.82687">
        <ele>33.3029</ele>
        <time>2011-08-27T18:46:23Z</time>
      </trkpt>
      <trkpt lat="59.4383691" lon="17.8274352">
        <ele>35.2255</ele>
        <time>2011-08-27T18:46:27Z</time>
      </trkpt>
      <trkpt lat="59.4383425" lon="17.8277225">
        <ele>35.2255</ele>
        <time>2011-08-27T18:46:29Z</time>
      </trkpt>
      <trkpt lat="59.4382702" lon="17.8279594">
        <ele>35.2255</ele>
        <time>2011-08-27T18:46:31Z</time>
      </trkpt>
      <trkpt lat="59.4382089" lon="17.8280232">
        <ele>34.7449</ele>
        <time>2011-08-27T18:46:32Z</time>
      </trkpt>
      <trkpt lat="59.4379969" lon="17.8279993">
        <ele>34.7449</ele>
        <time>2011-08-27T18:46:35Z</time>
      </trkpt>
      <trkpt lat="59.4373276" lon="17.8275671">
        <ele>33.3029</ele>
        <time>2011-08-27T18:46:44Z</time>
      </trkpt>
      <trkpt lat="59.4370294" lon="17.827417">
        <ele>33.3029</ele>
        <time>2011-08-27T18:46:48Z</time>
      </trkpt>
      <trkpt lat="59.4366536" lon="17.8275174">
        <ele>32.8223</ele>
        <time>2011-08-27T18:46:53Z</time>
      </trkpt>
      <trkpt lat="59.436582" lon="17.8275797">
        <ele>32.8223</ele>
        <time>2011-08-27T18:46:54Z</time>
      </trkpt>
      <trkpt lat="59.4362995" lon="17.8278571">
        <ele>32.3416</ele>
        <time>2011-08-27T18:46:58Z</time>
      </trkpt>
      <trkpt lat="59.4359254" lon="17.8281711">
        <ele>31.3801</ele>
        <time>2011-08-27T18:47:03Z</time>
      </trkpt>
      <trkpt lat="59.4355219" lon="17.8285578">
        <ele>29.4575</ele>
        <time>2011-08-27T18:47:08Z</time>
      </trkpt>
      <trkpt lat="59.4354373" lon="17.8286193">
        <ele>28.9769</ele>
        <time>2011-08-27T18:47:09Z</time>
      </trkpt>
      <trkpt lat="59.4351116" lon="17.8286122">
        <ele>28.9769</ele>
        <time>2011-08-27T18:47:13Z</time>
      </trkpt>
      <trkpt lat="59.4346975" lon="17.8283778">
        <ele>27.5349</ele>
        <time>2011-08-27T18:47:18Z</time>
      </trkpt>
      <trkpt lat="59.4341192" lon="17.8284546">
        <ele>25.1317</ele>
        <time>2011-08-27T18:47:24Z</time>
      </trkpt>
      <trkpt lat="59.4333985" lon="17.8285897">
        <ele>23.209</ele>
        <time>2011-08-27T18:47:31Z</time>
      </trkpt>
      <trkpt lat="59.4328524" lon="17.828979">
        <ele>20.325</ele>
        <time>2011-08-27T18:47:37Z</time>
      </trkpt>
      <trkpt lat="59.4323211" lon="17.8295062">
        <ele>17.9218</ele>
        <time>2011-08-27T18:47:43Z</time>
      </trkpt>
      <trkpt lat="59.4317961" lon="17.8301257">
        <ele>17.9218</ele>
        <time>2011-08-27T18:47:49Z</time>
      </trkpt>
      <trkpt lat="59.4312167" lon="17.830996">
        <ele>17.9218</ele>
        <time>2011-08-27T18:47:57Z</time>
      </trkpt>
      <trkpt lat="59.4308649" lon="17.8314032">
        <ele>17.4412</ele>
        <time>2011-08-27T18:48:02Z</time>
      </trkpt>
      <trkpt lat="59.4304408" lon="17.8317176">
        <ele>16.4797</ele>
        <time>2011-08-27T18:48:08Z</time>
      </trkpt>
      <trkpt lat="59.4301873" lon="17.8318125">
        <ele>15.999</ele>
        <time>2011-08-27T18:48:12Z</time>
      </trkpt>
      <trkpt lat="59.430032" lon="17.8316985">
        <ele>16.9604</ele>
        <time>2011-08-27T18:48:15Z</time>
      </trkpt>
      <trkpt lat="59.4299851" lon="17.8315811">
        <ele>17.4412</ele>
        <time>2011-08-27T18:48:16Z</time>
      </trkpt>
      <trkpt lat="59.4299439" lon="17.8314373">
        <ele>17.4412</ele>
        <time>2011-08-27T18:48:17Z</time>
      </trkpt>
      <trkpt lat="59.4297756" lon="17.8308458">
        <ele>17.4412</ele>
        <time>2011-08-27T18:48:21Z</time>
      </trkpt>
      <trkpt lat="59.4295635" lon="17.8306057">
        <ele>18.4023</ele>
        <time>2011-08-27T18:48:25Z</time>
      </trkpt>
      <trkpt lat="59.4294482" lon="17.8306659">
        <ele>18.4023</ele>
        <time>2011-08-27T18:48:27Z</time>
      </trkpt>
      <trkpt lat="59.4293207" lon="17.8307619">
        <ele>18.8831</ele>
        <time>2011-08-27T18:48:31Z</time>
      </trkpt>
      <trkpt lat="59.4293004" lon="17.8307782">
        <ele>18.4023</ele>
        <time>2011-08-27T18:48:33Z</time>
      </trkpt>
      <trkpt lat="59.4291943" lon="17.8308509">
        <ele>18.8831</ele>
        <time>2011-08-27T18:48:37Z</time>
      </trkpt>
      <trkpt lat="59.42893" lon="17.8310442">
        <ele>17.9218</ele>
        <time>2011-08-27T18:48:41Z</time>
      </trkpt>
      <trkpt lat="59.4284267" lon="17.8314047">
        <ele>17.9218</ele>
        <time>2011-08-27T18:48:47Z</time>
      </trkpt>
      <trkpt lat="59.4276634" lon="17.8319557">
        <ele>17.9218</ele>
        <time>2011-08-27T18:48:56Z</time>
      </trkpt>
      <trkpt lat="59.4269062" lon="17.8324759">
        <ele>17.4412</ele>
        <time>2011-08-27T18:49:05Z</time>
      </trkpt>
      <trkpt lat="59.4262465" lon="17.8329301">
        <ele>19.3638</ele>
        <time>2011-08-27T18:49:13Z</time>
      </trkpt>
      <trkpt lat="59.4258295" lon="17.8330582">
        <ele>21.2864</ele>
        <time>2011-08-27T18:49:18Z</time>
      </trkpt>
      <trkpt lat="59.4252425" lon="17.833137">
        <ele>20.8057</ele>
        <time>2011-08-27T18:49:25Z</time>
      </trkpt>
      <trkpt lat="59.4248874" lon="17.8332817">
        <ele>19.3638</ele>
        <time>2011-08-27T18:49:29Z</time>
      </trkpt>
      <trkpt lat="59.4243421" lon="17.8334591">
        <ele>24.1703</ele>
        <time>2011-08-27T18:49:36Z</time>
      </trkpt>
      <trkpt lat="59.4238204" lon="17.8335749">
        <ele>21.767</ele>
        <time>2011-08-27T18:49:43Z</time>
      </trkpt>
      <trkpt lat="59.4232574" lon="17.8336188">
        <ele>25.1317</ele>
        <time>2011-08-27T18:49:50Z</time>
      </trkpt>
      <trkpt lat="59.4227794" lon="17.8334815">
        <ele>29.9381</ele>
        <time>2011-08-27T18:49:56Z</time>
      </trkpt>
      <trkpt lat="59.4223027" lon="17.8334419">
        <ele>30.8995</ele>
        <time>2011-08-27T18:50:02Z</time>
      </trkpt>
      <trkpt lat="59.4218912" lon="17.8333647">
        <ele>32.8223</ele>
        <time>2011-08-27T18:50:07Z</time>
      </trkpt>
      <trkpt lat="59.421605" lon="17.8335301">
        <ele>30.8995</ele>
        <time>2011-08-27T18:50:11Z</time>
      </trkpt>
      <trkpt lat="59.4215535" lon="17.8336447">
        <ele>30.8995</ele>
        <time>2011-08-27T18:50:12Z</time>
      </trkpt>
      <trkpt lat="59.4214931" lon="17.8339262">
        <ele>30.4188</ele>
        <time>2011-08-27T18:50:14Z</time>
      </trkpt>
      <trkpt lat="59.4214852" lon="17.834078">
        <ele>28.9769</ele>
        <time>2011-08-27T18:50:15Z</time>
      </trkpt>
      <trkpt lat="59.4214799" lon="17.8346703">
        <ele>28.4962</ele>
        <time>2011-08-27T18:50:19Z</time>
      </trkpt>
      <trkpt lat="59.4214864" lon="17.8350814">
        <ele>29.4575</ele>
        <time>2011-08-27T18:50:22Z</time>
      </trkpt>
      <trkpt lat="59.4214252" lon="17.8353871">
        <ele>27.5349</ele>
        <time>2011-08-27T18:50:25Z</time>
      </trkpt>
      <trkpt lat="59.4213572" lon="17.8354569">
        <ele>26.0929</ele>
        <time>2011-08-27T18:50:26Z</time>
      </trkpt>
      <trkpt lat="59.4207703" lon="17.8357042">
        <ele>23.209</ele>
        <time>2011-08-27T18:50:34Z</time>
      </trkpt>
      <trkpt lat="59.4206977" lon="17.8357275">
        <ele>22.7283</ele>
        <time>2011-08-27T18:50:35Z</time>
      </trkpt>
      <trkpt lat="59.4203058" lon="17.8358601">
        <ele>26.5736</ele>
        <time>2011-08-27T18:50:40Z</time>
      </trkpt>
      <trkpt lat="59.4198354" lon="17.8358868">
        <ele>26.0929</ele>
        <time>2011-08-27T18:50:47Z</time>
      </trkpt>
      <trkpt lat="59.4192842" lon="17.8357658">
        <ele>26.5736</ele>
        <time>2011-08-27T18:50:55Z</time>
      </trkpt>
      <trkpt lat="59.4188172" lon="17.835559">
        <ele>26.0929</ele>
        <time>2011-08-27T18:51:02Z</time>
      </trkpt>
      <trkpt lat="59.4183467" lon="17.8352518">
        <ele>26.0929</ele>
        <time>2011-08-27T18:51:09Z</time>
      </trkpt>
      <trkpt lat="59.4179386" lon="17.8349396">
        <ele>29.4575</ele>
        <time>2011-08-27T18:51:16Z</time>
      </trkpt>
      <trkpt lat="59.4178896" lon="17.8348983">
        <ele>29.9381</ele>
        <time>2011-08-27T18:51:17Z</time>
      </trkpt>
      <trkpt lat="59.4178089" lon="17.8345317">
        <ele>29.4575</ele>
        <time>2011-08-27T18:51:21Z</time>
      </trkpt>
      <trkpt lat="59.4178375" lon="17.8337134">
        <ele>26.5736</ele>
        <time>2011-08-27T18:51:26Z</time>
      </trkpt>
      <trkpt lat="59.4178708" lon="17.8328322">
        <ele>22.2476</ele>
        <time>2011-08-27T18:51:30Z</time>
      </trkpt>
      <trkpt lat="59.4179078" lon="17.8318449">
        <ele>18.4023</ele>
        <time>2011-08-27T18:51:34Z</time>
      </trkpt>
      <trkpt lat="59.4179774" lon="17.8309799">
        <ele>18.4023</ele>
        <time>2011-08-27T18:51:38Z</time>
      </trkpt>
      <trkpt lat="59.4180856" lon="17.8301034">
        <ele>20.325</ele>
        <time>2011-08-27T18:51:43Z</time>
      </trkpt>
      <trkpt lat="59.418125" lon="17.8298671">
        <ele>21.2864</ele>
        <time>2011-08-27T18:51:45Z</time>
      </trkpt>
      <trkpt lat="59.418081" lon="17.8294832">
        <ele>21.2864</ele>
        <time>2011-08-27T18:51:49Z</time>
      </trkpt>
      <trkpt lat="59.4179621" lon="17.8293855">
        <ele>21.2864</ele>
        <time>2011-08-27T18:51:51Z</time>
      </trkpt>
      <trkpt lat="59.4174126" lon="17.8291035">
        <ele>19.8444</ele>
        <time>2011-08-27T18:51:58Z</time>
      </trkpt>
      <trkpt lat="59.4165881" lon="17.8286481">
        <ele>18.8831</ele>
        <time>2011-08-27T18:52:08Z</time>
      </trkpt>
      <trkpt lat="59.4165055" lon="17.8286103">
        <ele>18.4023</ele>
        <time>2011-08-27T18:52:09Z</time>
      </trkpt>
      <trkpt lat="59.4159329" lon="17.8283712">
        <ele>17.9218</ele>
        <time>2011-08-27T18:52:16Z</time>
      </trkpt>
      <trkpt lat="59.4154715" lon="17.8282203">
        <ele>16.4797</ele>
        <time>2011-08-27T18:52:22Z</time>
      </trkpt>
      <trkpt lat="59.4150908" lon="17.8282141">
        <ele>16.9604</ele>
        <time>2011-08-27T18:52:27Z</time>
      </trkpt>
      <trkpt lat="59.4146179" lon="17.8280904">
        <ele>15.999</ele>
        <time>2011-08-27T18:52:33Z</time>
      </trkpt>
      <trkpt lat="59.414048" lon="17.8281621">
        <ele>15.0377</ele>
        <time>2011-08-27T18:52:40Z</time>
      </trkpt>
      <trkpt lat="59.4134464" lon="17.8282814">
        <ele>15.0377</ele>
        <time>2011-08-27T18:52:48Z</time>
      </trkpt>
      <trkpt lat="59.4129062" lon="17.8283774">
        <ele>16.9604</ele>
        <time>2011-08-27T18:52:56Z</time>
      </trkpt>
      <trkpt lat="59.4124718" lon="17.8285255">
        <ele>19.8444</ele>
        <time>2011-08-27T18:53:03Z</time>
      </trkpt>
      <trkpt lat="59.4120782" lon="17.8287886">
        <ele>21.767</ele>
        <time>2011-08-27T18:53:10Z</time>
      </trkpt>
      <trkpt lat="59.4116494" lon="17.8292289">
        <ele>23.209</ele>
        <time>2011-08-27T18:53:18Z</time>
      </trkpt>
      <trkpt lat="59.4114764" lon="17.8295021">
        <ele>23.6896</ele>
        <time>2011-08-27T18:53:22Z</time>
      </trkpt>
      <trkpt lat="59.4112793" lon="17.829836">
        <ele>26.0929</ele>
        <time>2011-08-27T18:53:28Z</time>
      </trkpt>
      <trkpt lat="59.4111732" lon="17.8299926">
        <ele>27.5349</ele>
        <time>2011-08-27T18:53:31Z</time>
      </trkpt>
      <trkpt lat="59.410922" lon="17.830532">
        <ele>29.4575</ele>
        <time>2011-08-27T18:53:38Z</time>
      </trkpt>
      <trkpt lat="59.4107392" lon="17.8310997">
        <ele>29.4575</ele>
        <time>2011-08-27T18:53:44Z</time>
      </trkpt>
      <trkpt lat="59.410545" lon="17.8318984">
        <ele>31.8607</ele>
        <time>2011-08-27T18:53:52Z</time>
      </trkpt>
      <trkpt lat="59.4104085" lon="17.8326009">
        <ele>28.9769</ele>
        <time>2011-08-27T18:53:58Z</time>
      </trkpt>
      <trkpt lat="59.4102212" lon="17.8336009">
        <ele>24.651</ele>
        <time>2011-08-27T18:54:05Z</time>
      </trkpt>
      <trkpt lat="59.4099915" lon="17.834779">
        <ele>24.1703</ele>
        <time>2011-08-27T18:54:13Z</time>
      </trkpt>
      <trkpt lat="59.4098046" lon="17.8355819">
        <ele>24.1703</ele>
        <time>2011-08-27T18:54:19Z</time>
      </trkpt>
      <trkpt lat="59.4097343" lon="17.8358227">
        <ele>23.6896</ele>
        <time>2011-08-27T18:54:21Z</time>
      </trkpt>
      <trkpt lat="59.409587" lon="17.8362849">
        <ele>24.651</ele>
        <time>2011-08-27T18:54:25Z</time>
      </trkpt>
      <trkpt lat="59.4093676" lon="17.8367878">
        <ele>26.5736</ele>
        <time>2011-08-27T18:54:30Z</time>
      </trkpt>
      <trkpt lat="59.4090437" lon="17.8372917">
        <ele>25.1317</ele>
        <time>2011-08-27T18:54:36Z</time>
      </trkpt>
      <trkpt lat="59.4086743" lon="17.8377362">
        <ele>24.651</ele>
        <time>2011-08-27T18:54:42Z</time>
      </trkpt>
      <trkpt lat="59.4081971" lon="17.8381263">
        <ele>24.1703</ele>
        <time>2011-08-27T18:54:49Z</time>
      </trkpt>
      <trkpt lat="59.4081301" lon="17.8381702">
        <ele>23.6896</ele>
        <time>2011-08-27T18:54:50Z</time>
      </trkpt>
      <trkpt lat="59.4077613" lon="17.8385797">
        <ele>24.651</ele>
        <time>2011-08-27T18:54:56Z</time>
      </trkpt>
      <trkpt lat="59.407382" lon="17.8389322">
        <ele>24.1703</ele>
        <time>2011-08-27T18:55:02Z</time>
      </trkpt>
      <trkpt lat="59.407259" lon="17.8390276">
        <ele>24.1703</ele>
        <time>2011-08-27T18:55:04Z</time>
      </trkpt>
      <trkpt lat="59.4070162" lon="17.8389722">
        <ele>23.209</ele>
        <time>2011-08-27T18:55:08Z</time>
      </trkpt>
      <trkpt lat="59.4068634" lon="17.8389433">
        <ele>22.2476</ele>
        <time>2011-08-27T18:55:10Z</time>
      </trkpt>
      <trkpt lat="59.4066948" lon="17.8389958">
        <ele>21.2864</ele>
        <time>2011-08-27T18:55:12Z</time>
      </trkpt>
      <trkpt lat="59.4064195" lon="17.8394794">
        <ele>20.8057</ele>
        <time>2011-08-27T18:55:16Z</time>
      </trkpt>
      <trkpt lat="59.4059725" lon="17.8400644">
        <ele>21.767</ele>
        <time>2011-08-27T18:55:23Z</time>
      </trkpt>
      <trkpt lat="59.4055688" lon="17.84046">
        <ele>21.767</ele>
        <time>2011-08-27T18:55:29Z</time>
      </trkpt>
      <trkpt lat="59.4050381" lon="17.8409919">
        <ele>21.2864</ele>
        <time>2011-08-27T18:55:36Z</time>
      </trkpt>
      <trkpt lat="59.4044578" lon="17.8415463">
        <ele>19.3638</ele>
        <time>2011-08-27T18:55:43Z</time>
      </trkpt>
      <trkpt lat="59.4036589" lon="17.8422606">
        <ele>16.9604</ele>
        <time>2011-08-27T18:55:52Z</time>
      </trkpt>
      <trkpt lat="59.4031883" lon="17.8425242">
        <ele>16.4797</ele>
        <time>2011-08-27T18:55:57Z</time>
      </trkpt>
      <trkpt lat="59.4029209" lon="17.8425855">
        <ele>15.999</ele>
        <time>2011-08-27T18:56:00Z</time>
      </trkpt>
      <trkpt lat="59.4025599" lon="17.8425238">
        <ele>14.557</ele>
        <time>2011-08-27T18:56:04Z</time>
      </trkpt>
      <trkpt lat="59.4023688" lon="17.8425546">
        <ele>14.0764</ele>
        <time>2011-08-27T18:56:06Z</time>
      </trkpt>
      <trkpt lat="59.4021661" lon="17.8432455">
        <ele>14.0764</ele>
        <time>2011-08-27T18:56:10Z</time>
      </trkpt>
      <trkpt lat="59.4020786" lon="17.843624">
        <ele>12.6344</ele>
        <time>2011-08-27T18:56:12Z</time>
      </trkpt>
      <trkpt lat="59.4018643" lon="17.844032">
        <ele>12.6344</ele>
        <time>2011-08-27T18:56:15Z</time>
      </trkpt>
      <trkpt lat="59.4017099" lon="17.8442725">
        <ele>12.1538</ele>
        <time>2011-08-27T18:56:17Z</time>
      </trkpt>
      <trkpt lat="59.4012036" lon="17.8453519">
        <ele>13.1151</ele>
        <time>2011-08-27T18:56:25Z</time>
      </trkpt>
      <trkpt lat="59.4007551" lon="17.8464306">
        <ele>13.1151</ele>
        <time>2011-08-27T18:56:33Z</time>
      </trkpt>
      <trkpt lat="59.4002712" lon="17.847751">
        <ele>13.1151</ele>
        <time>2011-08-27T18:56:43Z</time>
      </trkpt>
      <trkpt lat="59.4000096" lon="17.8484864">
        <ele>13.1151</ele>
        <time>2011-08-27T18:56:49Z</time>
      </trkpt>
      <trkpt lat="59.3998108" lon="17.8490311">
        <ele>13.1151</ele>
        <time>2011-08-27T18:56:54Z</time>
      </trkpt>
      <trkpt lat="59.3997444" lon="17.8492114">
        <ele>13.1151</ele>
        <time>2011-08-27T18:56:56Z</time>
      </trkpt>
      <trkpt lat="59.3996206" lon="17.8492606">
        <ele>13.5958</ele>
        <time>2011-08-27T18:56:59Z</time>
      </trkpt>
      <trkpt lat="59.3994995" lon="17.8489404">
        <ele>13.5958</ele>
        <time>2011-08-27T18:57:02Z</time>
      </trkpt>
      <trkpt lat="59.3993868" lon="17.8486692">
        <ele>13.5958</ele>
        <time>2011-08-27T18:57:04Z</time>
      </trkpt>
      <trkpt lat="59.3986043" lon="17.8467995">
        <ele>15.5184</ele>
        <time>2011-08-27T18:57:16Z</time>
      </trkpt>
      <trkpt lat="59.3982194" lon="17.8458907">
        <ele>17.4412</ele>
        <time>2011-08-27T18:57:23Z</time>
      </trkpt>
      <trkpt lat="59.3977504" lon="17.8448279">
        <ele>18.8831</ele>
        <time>2011-08-27T18:57:32Z</time>
      </trkpt>
      <trkpt lat="59.3976974" lon="17.8447134">
        <ele>19.3638</ele>
        <time>2011-08-27T18:57:33Z</time>
      </trkpt>
      <trkpt lat="59.3972379" lon="17.8436058">
        <ele>19.3638</ele>
        <time>2011-08-27T18:57:42Z</time>
      </trkpt>
      <trkpt lat="59.3967369" lon="17.8424015">
        <ele>19.8444</ele>
        <time>2011-08-27T18:57:52Z</time>
      </trkpt>
      <trkpt lat="59.396458" lon="17.8417701">
        <ele>19.8444</ele>
        <time>2011-08-27T18:57:58Z</time>
      </trkpt>
      <trkpt lat="59.3963556" lon="17.8415131">
        <ele>19.8444</ele>
        <time>2011-08-27T18:58:00Z</time>
      </trkpt>
      <trkpt lat="59.3960406" lon="17.8407107">
        <ele>20.325</ele>
        <time>2011-08-27T18:58:06Z</time>
      </trkpt>
      <trkpt lat="59.3955323" lon="17.8394105">
        <ele>20.8057</ele>
        <time>2011-08-27T18:58:16Z</time>
      </trkpt>
      <trkpt lat="59.395072" lon="17.8381946">
        <ele>21.767</ele>
        <time>2011-08-27T18:58:26Z</time>
      </trkpt>
      <trkpt lat="59.3947835" lon="17.8374503">
        <ele>24.651</ele>
        <time>2011-08-27T18:58:33Z</time>
      </trkpt>
      <trkpt lat="59.3944579" lon="17.8365606">
        <ele>26.5736</ele>
        <time>2011-08-27T18:58:42Z</time>
      </trkpt>
      <trkpt lat="59.3941506" lon="17.8357486">
        <ele>28.0155</ele>
        <time>2011-08-27T18:58:50Z</time>
      </trkpt>
      <trkpt lat="59.3938976" lon="17.8349777">
        <ele>28.0155</ele>
        <time>2011-08-27T18:58:57Z</time>
      </trkpt>
      <trkpt lat="59.3935537" lon="17.8339977">
        <ele>28.4962</ele>
        <time>2011-08-27T18:59:06Z</time>
      </trkpt>
      <trkpt lat="59.393519" lon="17.8339008">
        <ele>28.4962</ele>
        <time>2011-08-27T18:59:07Z</time>
      </trkpt>
      <trkpt lat="59.3933329" lon="17.8337342">
        <ele>28.4962</ele>
        <time>2011-08-27T18:59:11Z</time>
      </trkpt>
      <trkpt lat="59.3932082" lon="17.8338507">
        <ele>28.4962</ele>
        <time>2011-08-27T18:59:13Z</time>
      </trkpt>
      <trkpt lat="59.3930144" lon="17.8341318">
        <ele>28.0155</ele>
        <time>2011-08-27T18:59:16Z</time>
      </trkpt>
      <trkpt lat="59.3927653" lon="17.8346918">
        <ele>27.0543</ele>
        <time>2011-08-27T18:59:21Z</time>
      </trkpt>
      <trkpt lat="59.3924453" lon="17.8355936">
        <ele>26.5736</ele>
        <time>2011-08-27T18:59:29Z</time>
      </trkpt>
      <trkpt lat="59.3924053" lon="17.8357024">
        <ele>27.0543</ele>
        <time>2011-08-27T18:59:30Z</time>
      </trkpt>
      <trkpt lat="59.392106" lon="17.8361984">
        <ele>27.5349</ele>
        <time>2011-08-27T18:59:36Z</time>
      </trkpt>
      <trkpt lat="59.391622" lon="17.8368193">
        <ele>28.0155</ele>
        <time>2011-08-27T18:59:45Z</time>
      </trkpt>
      <trkpt lat="59.3912272" lon="17.8372943">
        <ele>28.0155</ele>
        <time>2011-08-27T18:59:52Z</time>
      </trkpt>
      <trkpt lat="59.3909868" lon="17.8375062">
        <ele>27.5349</ele>
        <time>2011-08-27T18:59:56Z</time>
      </trkpt>
      <trkpt lat="59.390792" lon="17.837838">
        <ele>28.0155</ele>
        <time>2011-08-27T19:00:00Z</time>
      </trkpt>
      <trkpt lat="59.3903419" lon="17.8385335">
        <ele>29.9381</ele>
        <time>2011-08-27T19:00:08Z</time>
      </trkpt>
      <trkpt lat="59.3902851" lon="17.838623">
        <ele>29.9381</ele>
        <time>2011-08-27T19:00:09Z</time>
      </trkpt>
      <trkpt lat="59.3900463" lon="17.8389473">
        <ele>29.9381</ele>
        <time>2011-08-27T19:00:13Z</time>
      </trkpt>
      <trkpt lat="59.3897614" lon="17.8391231">
        <ele>29.9381</ele>
        <time>2011-08-27T19:00:17Z</time>
      </trkpt>
      <trkpt lat="59.3894614" lon="17.8391552">
        <ele>29.4575</ele>
        <time>2011-08-27T19:00:21Z</time>
      </trkpt>
      <trkpt lat="59.3891049" lon="17.8393944">
        <ele>28.4962</ele>
        <time>2011-08-27T19:00:26Z</time>
      </trkpt>
      <trkpt lat="59.3889388" lon="17.8396778">
        <ele>28.0155</ele>
        <time>2011-08-27T19:00:29Z</time>
      </trkpt>
      <trkpt lat="59.3887521" lon="17.8397636">
        <ele>28.0155</ele>
        <time>2011-08-27T19:00:32Z</time>
      </trkpt>
      <trkpt lat="59.3886381" lon="17.8396513">
        <ele>28.0155</ele>
        <time>2011-08-27T19:00:34Z</time>
      </trkpt>
      <trkpt lat="59.3881224" lon="17.8390234">
        <ele>27.5349</ele>
        <time>2011-08-27T19:00:42Z</time>
      </trkpt>
      <trkpt lat="59.3875325" lon="17.8383025">
        <ele>28.0155</ele>
        <time>2011-08-27T19:00:51Z</time>
      </trkpt>
      <trkpt lat="59.3871215" lon="17.8376429">
        <ele>28.0155</ele>
        <time>2011-08-27T19:00:58Z</time>
      </trkpt>
      <trkpt lat="59.3867068" lon="17.836851">
        <ele>30.8995</ele>
        <time>2011-08-27T19:01:06Z</time>
      </trkpt>
      <trkpt lat="59.3863697" lon="17.8360808">
        <ele>32.3416</ele>
        <time>2011-08-27T19:01:14Z</time>
      </trkpt>
      <trkpt lat="59.386043" lon="17.8354317">
        <ele>32.3416</ele>
        <time>2011-08-27T19:01:21Z</time>
      </trkpt>
      <trkpt lat="59.3856305" lon="17.8345645">
        <ele>32.8223</ele>
        <time>2011-08-27T19:01:30Z</time>
      </trkpt>
      <trkpt lat="59.3852453" lon="17.8337501">
        <ele>33.7834</ele>
        <time>2011-08-27T19:01:39Z</time>
      </trkpt>
      <trkpt lat="59.3850967" lon="17.833384">
        <ele>35.7061</ele>
        <time>2011-08-27T19:01:43Z</time>
      </trkpt>
      <trkpt lat="59.3849835" lon="17.832825">
        <ele>38.1094</ele>
        <time>2011-08-27T19:01:48Z</time>
      </trkpt>
      <trkpt lat="59.3849625" lon="17.8320166">
        <ele>39.5513</ele>
        <time>2011-08-27T19:01:55Z</time>
      </trkpt>
      <trkpt lat="59.3850199" lon="17.8311171">
        <ele>38.5901</ele>
        <time>2011-08-27T19:02:02Z</time>
      </trkpt>
      <trkpt lat="59.3851008" lon="17.8301702">
        <ele>36.6675</ele>
        <time>2011-08-27T19:02:08Z</time>
      </trkpt>
      <trkpt lat="59.3852034" lon="17.82906">
        <ele>34.2642</ele>
        <time>2011-08-27T19:02:14Z</time>
      </trkpt>
      <trkpt lat="59.385218" lon="17.8288691">
        <ele>33.3029</ele>
        <time>2011-08-27T19:02:15Z</time>
      </trkpt>
      <trkpt lat="59.3852281" lon="17.8281107">
        <ele>32.8223</ele>
        <time>2011-08-27T19:02:19Z</time>
      </trkpt>
      <trkpt lat="59.3852076" lon="17.8263841">
        <ele>30.8995</ele>
        <time>2011-08-27T19:02:28Z</time>
      </trkpt>
      <trkpt lat="59.3852267" lon="17.8252731">
        <ele>31.3801</ele>
        <time>2011-08-27T19:02:34Z</time>
      </trkpt>
      <trkpt lat="59.3853374" lon="17.8248514">
        <ele>31.8607</ele>
        <time>2011-08-27T19:02:37Z</time>
      </trkpt>
      <trkpt lat="59.3854879" lon="17.8247945">
        <ele>31.8607</ele>
        <time>2011-08-27T19:02:39Z</time>
      </trkpt>
      <trkpt lat="59.386097" lon="17.8250407">
        <ele>30.8995</ele>
        <time>2011-08-27T19:02:46Z</time>
      </trkpt>
      <trkpt lat="59.386919" lon="17.8253186">
        <ele>32.8223</ele>
        <time>2011-08-27T19:02:55Z</time>
      </trkpt>
      <trkpt lat="59.3875061" lon="17.825449">
        <ele>33.7834</ele>
        <time>2011-08-27T19:03:02Z</time>
      </trkpt>
      <trkpt lat="59.3879038" lon="17.8255282">
        <ele>33.7834</ele>
        <time>2011-08-27T19:03:07Z</time>
      </trkpt>
      <trkpt lat="59.3885791" lon="17.8255868">
        <ele>34.7449</ele>
        <time>2011-08-27T19:03:15Z</time>
      </trkpt>
      <trkpt lat="59.3888124" lon="17.8256048">
        <ele>34.7449</ele>
        <time>2011-08-27T19:03:18Z</time>
      </trkpt>
      <trkpt lat="59.3890196" lon="17.8255024">
        <ele>34.2642</ele>
        <time>2011-08-27T19:03:21Z</time>
      </trkpt>
      <trkpt lat="59.38909" lon="17.8252543">
        <ele>34.2642</ele>
        <time>2011-08-27T19:03:23Z</time>
      </trkpt>
      <trkpt lat="59.3890983" lon="17.8251037">
        <ele>34.7449</ele>
        <time>2011-08-27T19:03:24Z</time>
      </trkpt>
      <trkpt lat="59.3890606" lon="17.8237619">
        <ele>35.7061</ele>
        <time>2011-08-27T19:03:33Z</time>
      </trkpt>
      <trkpt lat="59.3890188" lon="17.8225808">
        <ele>35.2255</ele>
        <time>2011-08-27T19:03:41Z</time>
      </trkpt>
      <trkpt lat="59.3890775" lon="17.82165">
        <ele>34.2642</ele>
        <time>2011-08-27T19:03:47Z</time>
      </trkpt>
      <trkpt lat="59.3892346" lon="17.8208321">
        <ele>32.8223</ele>
        <time>2011-08-27T19:03:52Z</time>
      </trkpt>
      <trkpt lat="59.3895624" lon="17.8194671">
        <ele>31.3801</ele>
        <time>2011-08-27T19:04:00Z</time>
      </trkpt>
      <trkpt lat="59.3895959" lon="17.8192957">
        <ele>31.3801</ele>
        <time>2011-08-27T19:04:01Z</time>
      </trkpt>
      <trkpt lat="59.389696" lon="17.8184399">
        <ele>31.8607</ele>
        <time>2011-08-27T19:04:06Z</time>
      </trkpt>
      <trkpt lat="59.3896976" lon="17.8174365">
        <ele>31.8607</ele>
        <time>2011-08-27T19:04:12Z</time>
      </trkpt>
      <trkpt lat="59.3896728" lon="17.8160886">
        <ele>31.8607</ele>
        <time>2011-08-27T19:04:20Z</time>
      </trkpt>
      <trkpt lat="59.3897992" lon="17.8152208">
        <ele>30.8995</ele>
        <time>2011-08-27T19:04:25Z</time>
      </trkpt>
      <trkpt lat="59.3901675" lon="17.8135737">
        <ele>29.9381</ele>
        <time>2011-08-27T19:04:34Z</time>
      </trkpt>
      <trkpt lat="59.390554" lon="17.8119478">
        <ele>29.4575</ele>
        <time>2011-08-27T19:04:43Z</time>
      </trkpt>
      <trkpt lat="59.3908507" lon="17.8106801">
        <ele>28.0155</ele>
        <time>2011-08-27T19:04:50Z</time>
      </trkpt>
      <trkpt lat="59.3911595" lon="17.8092762">
        <ele>26.0929</ele>
        <time>2011-08-27T19:04:57Z</time>
      </trkpt>
      <trkpt lat="59.3912722" lon="17.808378">
        <ele>24.651</ele>
        <time>2011-08-27T19:05:01Z</time>
      </trkpt>
      <trkpt lat="59.391261" lon="17.8074763">
        <ele>24.1703</ele>
        <time>2011-08-27T19:05:05Z</time>
      </trkpt>
      <trkpt lat="59.3911388" lon="17.8066763">
        <ele>24.651</ele>
        <time>2011-08-27T19:05:09Z</time>
      </trkpt>
      <trkpt lat="59.3909032" lon="17.8056648">
        <ele>25.1317</ele>
        <time>2011-08-27T19:05:15Z</time>
      </trkpt>
      <trkpt lat="59.3906886" lon="17.8047912">
        <ele>26.5736</ele>
        <time>2011-08-27T19:05:21Z</time>
      </trkpt>
      <trkpt lat="59.3904739" lon="17.8038641">
        <ele>28.4962</ele>
        <time>2011-08-27T19:05:28Z</time>
      </trkpt>
      <trkpt lat="59.3902836" lon="17.8032125">
        <ele>28.4962</ele>
        <time>2011-08-27T19:05:33Z</time>
      </trkpt>
      <trkpt lat="59.3902318" lon="17.8030878">
        <ele>28.0155</ele>
        <time>2011-08-27T19:05:34Z</time>
      </trkpt>
      <trkpt lat="59.389939" lon="17.8026298">
        <ele>27.0543</ele>
        <time>2011-08-27T19:05:38Z</time>
      </trkpt>
      <trkpt lat="59.3896693" lon="17.8023983">
        <ele>26.0929</ele>
        <time>2011-08-27T19:05:41Z</time>
      </trkpt>
      <trkpt lat="59.3892905" lon="17.8023086">
        <ele>25.1317</ele>
        <time>2011-08-27T19:05:45Z</time>
      </trkpt>
      <trkpt lat="59.3890211" lon="17.8024019">
        <ele>25.1317</ele>
        <time>2011-08-27T19:05:48Z</time>
      </trkpt>
      <trkpt lat="59.3889392" lon="17.8024677">
        <ele>24.651</ele>
        <time>2011-08-27T19:05:49Z</time>
      </trkpt>
      <trkpt lat="59.3885151" lon="17.8030147">
        <ele>25.1317</ele>
        <time>2011-08-27T19:05:55Z</time>
      </trkpt>
      <trkpt lat="59.3880463" lon="17.8036311">
        <ele>27.0543</ele>
        <time>2011-08-27T19:06:02Z</time>
      </trkpt>
      <trkpt lat="59.3878835" lon="17.8037553">
        <ele>26.5736</ele>
        <time>2011-08-27T19:06:04Z</time>
      </trkpt>
      <trkpt lat="59.3875273" lon="17.8038394">
        <ele>24.651</ele>
        <time>2011-08-27T19:06:08Z</time>
      </trkpt>
      <trkpt lat="59.3869557" lon="17.8035724">
        <ele>22.7283</ele>
        <time>2011-08-27T19:06:14Z</time>
      </trkpt>
      <trkpt lat="59.3866259" lon="17.8031137">
        <ele>21.767</ele>
        <time>2011-08-27T19:06:18Z</time>
      </trkpt>
      <trkpt lat="59.3864851" lon="17.8028225">
        <ele>21.2864</ele>
        <time>2011-08-27T19:06:20Z</time>
      </trkpt>
      <trkpt lat="59.3861517" lon="17.8016901">
        <ele>16.4797</ele>
        <time>2011-08-27T19:06:26Z</time>
      </trkpt>
      <trkpt lat="59.3858351" lon="17.8005153">
        <ele>15.0377</ele>
        <time>2011-08-27T19:06:32Z</time>
      </trkpt>
      <trkpt lat="59.3856245" lon="17.7998475">
        <ele>15.5184</ele>
        <time>2011-08-27T19:06:36Z</time>
      </trkpt>
      <trkpt lat="59.3852853" lon="17.7992703">
        <ele>17.9218</ele>
        <time>2011-08-27T19:06:41Z</time>
      </trkpt>
      <trkpt lat="59.3850423" lon="17.7990318">
        <ele>19.3638</ele>
        <time>2011-08-27T19:06:44Z</time>
      </trkpt>
      <trkpt lat="59.3845135" lon="17.7988151">
        <ele>21.2864</ele>
        <time>2011-08-27T19:06:50Z</time>
      </trkpt>
      <trkpt lat="59.3840027" lon="17.7986963">
        <ele>19.8444</ele>
        <time>2011-08-27T19:06:56Z</time>
      </trkpt>
      <trkpt lat="59.3836518" lon="17.7985695">
        <ele>16.9604</ele>
        <time>2011-08-27T19:07:00Z</time>
      </trkpt>
      <trkpt lat="59.3834023" lon="17.7983586">
        <ele>15.0377</ele>
        <time>2011-08-27T19:07:03Z</time>
      </trkpt>
      <trkpt lat="59.3830731" lon="17.798313">
        <ele>14.557</ele>
        <time>2011-08-27T19:07:07Z</time>
      </trkpt>
      <trkpt lat="59.3829014" lon="17.7986509">
        <ele>14.0764</ele>
        <time>2011-08-27T19:07:10Z</time>
      </trkpt>
      <trkpt lat="59.3828558" lon="17.7987939">
        <ele>14.0764</ele>
        <time>2011-08-27T19:07:11Z</time>
      </trkpt>
      <trkpt lat="59.3824957" lon="17.8000837">
        <ele>15.999</ele>
        <time>2011-08-27T19:07:20Z</time>
      </trkpt>
      <trkpt lat="59.3821476" lon="17.801273">
        <ele>17.4412</ele>
        <time>2011-08-27T19:07:29Z</time>
      </trkpt>
      <trkpt lat="59.3818959" lon="17.8021186">
        <ele>18.4023</ele>
        <time>2011-08-27T19:07:36Z</time>
      </trkpt>
      <trkpt lat="59.3817011" lon="17.8024543">
        <ele>18.4023</ele>
        <time>2011-08-27T19:07:40Z</time>
      </trkpt>
      <trkpt lat="59.381456" lon="17.802844">
        <ele>19.8444</ele>
        <time>2011-08-27T19:07:45Z</time>
      </trkpt>
      <trkpt lat="59.3812827" lon="17.8029846">
        <ele>19.3638</ele>
        <time>2011-08-27T19:07:48Z</time>
      </trkpt>
      <trkpt lat="59.3807139" lon="17.8029863">
        <ele>21.2864</ele>
        <time>2011-08-27T19:07:57Z</time>
      </trkpt>
      <trkpt lat="59.3804697" lon="17.8030398">
        <ele>21.767</ele>
        <time>2011-08-27T19:08:01Z</time>
      </trkpt>
      <trkpt lat="59.3802147" lon="17.8032949">
        <ele>22.7283</ele>
        <time>2011-08-27T19:08:06Z</time>
      </trkpt>
      <trkpt lat="59.3801731" lon="17.8033679">
        <ele>22.7283</ele>
        <time>2011-08-27T19:08:07Z</time>
      </trkpt>
      <trkpt lat="59.3799913" lon="17.8034411">
        <ele>23.209</ele>
        <time>2011-08-27T19:08:11Z</time>
      </trkpt>
      <trkpt lat="59.3799746" lon="17.8033382">
        <ele>23.209</ele>
        <time>2011-08-27T19:08:12Z</time>
      </trkpt>
      <trkpt lat="59.3799548" lon="17.8031131">
        <ele>23.6896</ele>
        <time>2011-08-27T19:08:14Z</time>
      </trkpt>
      <trkpt lat="59.3798213" lon="17.8029082">
        <ele>24.1703</ele>
        <time>2011-08-27T19:08:17Z</time>
      </trkpt>
      <trkpt lat="59.3797004" lon="17.8029302">
        <ele>24.1703</ele>
        <time>2011-08-27T19:08:19Z</time>
      </trkpt>
      <trkpt lat="59.3791081" lon="17.8032989">
        <ele>25.6123</ele>
        <time>2011-08-27T19:08:29Z</time>
      </trkpt>
      <trkpt lat="59.3787624" lon="17.8035109">
        <ele>29.4575</ele>
        <time>2011-08-27T19:08:35Z</time>
      </trkpt>
      <trkpt lat="59.3784972" lon="17.8035674">
        <ele>31.3801</ele>
        <time>2011-08-27T19:08:40Z</time>
      </trkpt>
      <trkpt lat="59.3782305" lon="17.8035076">
        <ele>31.3801</ele>
        <time>2011-08-27T19:08:45Z</time>
      </trkpt>
      <trkpt lat="59.3778119" lon="17.8033248">
        <ele>30.8995</ele>
        <time>2011-08-27T19:08:52Z</time>
      </trkpt>
      <trkpt lat="59.3776737" lon="17.8032969">
        <ele>30.4188</ele>
        <time>2011-08-27T19:08:54Z</time>
      </trkpt>
      <trkpt lat="59.377344" lon="17.8034931">
        <ele>30.4188</ele>
        <time>2011-08-27T19:08:59Z</time>
      </trkpt>
      <trkpt lat="59.3771556" lon="17.8038407">
        <ele>30.8995</ele>
        <time>2011-08-27T19:09:03Z</time>
      </trkpt>
      <trkpt lat="59.3768525" lon="17.8046415">
        <ele>32.3416</ele>
        <time>2011-08-27T19:09:11Z</time>
      </trkpt>
      <trkpt lat="59.3765722" lon="17.8052424">
        <ele>34.7449</ele>
        <time>2011-08-27T19:09:18Z</time>
      </trkpt>
      <trkpt lat="59.3762233" lon="17.8060062">
        <ele>37.1481</ele>
        <time>2011-08-27T19:09:27Z</time>
      </trkpt>
      <trkpt lat="59.3761142" lon="17.8062715">
        <ele>37.6287</ele>
        <time>2011-08-27T19:09:30Z</time>
      </trkpt>
      <trkpt lat="59.3759801" lon="17.8066263">
        <ele>38.1094</ele>
        <time>2011-08-27T19:09:34Z</time>
      </trkpt>
      <trkpt lat="59.3759491" lon="17.8067159">
        <ele>38.1094</ele>
        <time>2011-08-27T19:09:35Z</time>
      </trkpt>
      <trkpt lat="59.3758166" lon="17.8074104">
        <ele>40.5128</ele>
        <time>2011-08-27T19:09:42Z</time>
      </trkpt>
      <trkpt lat="59.3758087" lon="17.8075192">
        <ele>40.5128</ele>
        <time>2011-08-27T19:09:43Z</time>
      </trkpt>
      <trkpt lat="59.3758257" lon="17.8082627">
        <ele>40.0321</ele>
        <time>2011-08-27T19:09:50Z</time>
      </trkpt>
      <trkpt lat="59.3758305" lon="17.8087836">
        <ele>39.0707</ele>
        <time>2011-08-27T19:09:54Z</time>
      </trkpt>
      <trkpt lat="59.3757615" lon="17.8094937">
        <ele>37.1481</ele>
        <time>2011-08-27T19:09:59Z</time>
      </trkpt>
      <trkpt lat="59.3757397" lon="17.8096437">
        <ele>36.6675</ele>
        <time>2011-08-27T19:10:00Z</time>
      </trkpt>
      <trkpt lat="59.3755472" lon="17.8103726">
        <ele>31.8607</ele>
        <time>2011-08-27T19:10:05Z</time>
      </trkpt>
      <trkpt lat="59.3753513" lon="17.8110312">
        <ele>28.9769</ele>
        <time>2011-08-27T19:10:10Z</time>
      </trkpt>
      <trkpt lat="59.3750616" lon="17.8118079">
        <ele>23.6896</ele>
        <time>2011-08-27T19:10:16Z</time>
      </trkpt>
      <trkpt lat="59.3748292" lon="17.8123653">
        <ele>21.767</ele>
        <time>2011-08-27T19:10:20Z</time>
      </trkpt>
      <trkpt lat="59.3746988" lon="17.8129857">
        <ele>21.767</ele>
        <time>2011-08-27T19:10:24Z</time>
      </trkpt>
      <trkpt lat="59.3747132" lon="17.813309">
        <ele>22.2476</ele>
        <time>2011-08-27T19:10:26Z</time>
      </trkpt>
      <trkpt lat="59.3747918" lon="17.8139621">
        <ele>23.6896</ele>
        <time>2011-08-27T19:10:31Z</time>
      </trkpt>
      <trkpt lat="59.3747401" lon="17.8142559">
        <ele>24.1703</ele>
        <time>2011-08-27T19:10:34Z</time>
      </trkpt>
      <trkpt lat="59.3746343" lon="17.8144065">
        <ele>24.1703</ele>
        <time>2011-08-27T19:10:36Z</time>
      </trkpt>
      <trkpt lat="59.3742556" lon="17.8148504">
        <ele>23.209</ele>
        <time>2011-08-27T19:10:42Z</time>
      </trkpt>
      <trkpt lat="59.373748" lon="17.815566">
        <ele>22.7283</ele>
        <time>2011-08-27T19:10:50Z</time>
      </trkpt>
      <trkpt lat="59.3732046" lon="17.8165543">
        <ele>21.767</ele>
        <time>2011-08-27T19:10:59Z</time>
      </trkpt>
      <trkpt lat="59.3727884" lon="17.8173253">
        <ele>20.8057</ele>
        <time>2011-08-27T19:11:06Z</time>
      </trkpt>
      <trkpt lat="59.3722209" lon="17.8183612">
        <ele>20.8057</ele>
        <time>2011-08-27T19:11:16Z</time>
      </trkpt>
      <trkpt lat="59.3717727" lon="17.8192023">
        <ele>21.2864</ele>
        <time>2011-08-27T19:11:24Z</time>
      </trkpt>
      <trkpt lat="59.3713528" lon="17.8199685">
        <ele>21.767</ele>
        <time>2011-08-27T19:11:32Z</time>
      </trkpt>
      <trkpt lat="59.3713" lon="17.8200575">
        <ele>21.767</ele>
        <time>2011-08-27T19:11:33Z</time>
      </trkpt>
      <trkpt lat="59.3708642" lon="17.8206685">
        <ele>22.7283</ele>
        <time>2011-08-27T19:11:41Z</time>
      </trkpt>
      <trkpt lat="59.370449" lon="17.8210774">
        <ele>22.2476</ele>
        <time>2011-08-27T19:11:48Z</time>
      </trkpt>
      <trkpt lat="59.3700127" lon="17.8214382">
        <ele>21.2864</ele>
        <time>2011-08-27T19:11:55Z</time>
      </trkpt>
      <trkpt lat="59.369805" lon="17.8215826">
        <ele>20.8057</ele>
        <time>2011-08-27T19:11:58Z</time>
      </trkpt>
      <trkpt lat="59.3693512" lon="17.821654">
        <ele>21.2864</ele>
        <time>2011-08-27T19:12:04Z</time>
      </trkpt>
      <trkpt lat="59.3689819" lon="17.8215153">
        <ele>21.767</ele>
        <time>2011-08-27T19:12:09Z</time>
      </trkpt>
      <trkpt lat="59.368495" lon="17.8213491">
        <ele>22.7283</ele>
        <time>2011-08-27T19:12:16Z</time>
      </trkpt>
      <trkpt lat="59.3682862" lon="17.8213624">
        <ele>22.7283</ele>
        <time>2011-08-27T19:12:19Z</time>
      </trkpt>
      <trkpt lat="59.3680872" lon="17.8214542">
        <ele>23.209</ele>
        <time>2011-08-27T19:12:22Z</time>
      </trkpt>
      <trkpt lat="59.3677543" lon="17.8218645">
        <ele>24.1703</ele>
        <time>2011-08-27T19:12:28Z</time>
      </trkpt>
      <trkpt lat="59.3674275" lon="17.8225115">
        <ele>24.651</ele>
        <time>2011-08-27T19:12:35Z</time>
      </trkpt>
      <trkpt lat="59.3671036" lon="17.8231974">
        <ele>23.209</ele>
        <time>2011-08-27T19:12:41Z</time>
      </trkpt>
      <trkpt lat="59.3669027" lon="17.8236983">
        <ele>22.7283</ele>
        <time>2011-08-27T19:12:45Z</time>
      </trkpt>
      <trkpt lat="59.3666388" lon="17.8243933">
        <ele>22.7283</ele>
        <time>2011-08-27T19:12:51Z</time>
      </trkpt>
      <trkpt lat="59.3663867" lon="17.8249858">
        <ele>25.1317</ele>
        <time>2011-08-27T19:12:57Z</time>
      </trkpt>
      <trkpt lat="59.3661405" lon="17.8255522">
        <ele>28.0155</ele>
        <time>2011-08-27T19:13:03Z</time>
      </trkpt>
      <trkpt lat="59.3658691" lon="17.8262263">
        <ele>29.9381</ele>
        <time>2011-08-27T19:13:10Z</time>
      </trkpt>
      <trkpt lat="59.3657008" lon="17.8268277">
        <ele>28.9769</ele>
        <time>2011-08-27T19:13:15Z</time>
      </trkpt>
      <trkpt lat="59.3655025" lon="17.8277227">
        <ele>27.0543</ele>
        <time>2011-08-27T19:13:21Z</time>
      </trkpt>
      <trkpt lat="59.3652434" lon="17.8284159">
        <ele>25.6123</ele>
        <time>2011-08-27T19:13:26Z</time>
      </trkpt>
      <trkpt lat="59.3650819" lon="17.828797">
        <ele>24.651</ele>
        <time>2011-08-27T19:13:29Z</time>
      </trkpt>
      <trkpt lat="59.3650082" lon="17.8293844">
        <ele>25.1317</ele>
        <time>2011-08-27T19:13:33Z</time>
      </trkpt>
      <trkpt lat="59.3651148" lon="17.8298463">
        <ele>26.5736</ele>
        <time>2011-08-27T19:13:37Z</time>
      </trkpt>
      <trkpt lat="59.365149" lon="17.8299376">
        <ele>27.0543</ele>
        <time>2011-08-27T19:13:38Z</time>
      </trkpt>
      <trkpt lat="59.3654936" lon="17.8306371">
        <ele>30.4188</ele>
        <time>2011-08-27T19:13:46Z</time>
      </trkpt>
      <trkpt lat="59.3657925" lon="17.8311389">
        <ele>29.9381</ele>
        <time>2011-08-27T19:13:52Z</time>
      </trkpt>
      <trkpt lat="59.3659173" lon="17.8316274">
        <ele>30.8995</ele>
        <time>2011-08-27T19:13:56Z</time>
      </trkpt>
      <trkpt lat="59.3658562" lon="17.8319994">
        <ele>30.8995</ele>
        <time>2011-08-27T19:13:59Z</time>
      </trkpt>
      <trkpt lat="59.3658195" lon="17.8321008">
        <ele>30.8995</ele>
        <time>2011-08-27T19:14:00Z</time>
      </trkpt>
      <trkpt lat="59.365545" lon="17.8327993">
        <ele>31.8607</ele>
        <time>2011-08-27T19:14:08Z</time>
      </trkpt>
      <trkpt lat="59.3652772" lon="17.8334568">
        <ele>34.2642</ele>
        <time>2011-08-27T19:14:16Z</time>
      </trkpt>
      <trkpt lat="59.3651999" lon="17.8335936">
        <ele>34.7449</ele>
        <time>2011-08-27T19:14:18Z</time>
      </trkpt>
      <trkpt lat="59.3648885" lon="17.8338869">
        <ele>35.7061</ele>
        <time>2011-08-27T19:14:25Z</time>
      </trkpt>
      <trkpt lat="59.3645758" lon="17.8340805">
        <ele>35.2255</ele>
        <time>2011-08-27T19:14:31Z</time>
      </trkpt>
      <trkpt lat="59.3644726" lon="17.8341833">
        <ele>35.2255</ele>
        <time>2011-08-27T19:14:33Z</time>
      </trkpt>
      <trkpt lat="59.36421" lon="17.8346683">
        <ele>36.1868</ele>
        <time>2011-08-27T19:14:39Z</time>
      </trkpt>
      <trkpt lat="59.363979" lon="17.835227">
        <ele>35.7061</ele>
        <time>2011-08-27T19:14:45Z</time>
      </trkpt>
      <trkpt lat="59.3639578" lon="17.8356002">
        <ele>35.2255</ele>
        <time>2011-08-27T19:14:49Z</time>
      </trkpt>
      <trkpt lat="59.3640328" lon="17.8358321">
        <ele>34.2642</ele>
        <time>2011-08-27T19:14:51Z</time>
      </trkpt>
      <trkpt lat="59.3643255" lon="17.8365273">
        <ele>31.8607</ele>
        <time>2011-08-27T19:14:56Z</time>
      </trkpt>
      <trkpt lat="59.3646938" lon="17.837537">
        <ele>30.4188</ele>
        <time>2011-08-27T19:15:02Z</time>
      </trkpt>
      <trkpt lat="59.3652056" lon="17.8390539">
        <ele>29.4575</ele>
        <time>2011-08-27T19:15:11Z</time>
      </trkpt>
      <trkpt lat="59.3654366" lon="17.8399397">
        <ele>29.4575</ele>
        <time>2011-08-27T19:15:16Z</time>
      </trkpt>
      <trkpt lat="59.3657312" lon="17.8414446">
        <ele>28.4962</ele>
        <time>2011-08-27T19:15:24Z</time>
      </trkpt>
      <trkpt lat="59.3659762" lon="17.8428247">
        <ele>29.9381</ele>
        <time>2011-08-27T19:15:32Z</time>
      </trkpt>
      <trkpt lat="59.3661635" lon="17.8437842">
        <ele>31.8607</ele>
        <time>2011-08-27T19:15:38Z</time>
      </trkpt>
      <trkpt lat="59.3661964" lon="17.8439383">
        <ele>31.3801</ele>
        <time>2011-08-27T19:15:39Z</time>
      </trkpt>
      <trkpt lat="59.3664804" lon="17.8452296">
        <ele>33.3029</ele>
        <time>2011-08-27T19:15:48Z</time>
      </trkpt>
      <trkpt lat="59.366652" lon="17.8461378">
        <ele>35.2255</ele>
        <time>2011-08-27T19:15:55Z</time>
      </trkpt>
      <trkpt lat="59.3668165" lon="17.8468586">
        <ele>37.6287</ele>
        <time>2011-08-27T19:16:01Z</time>
      </trkpt>
      <trkpt lat="59.3668523" lon="17.8469693">
        <ele>38.5901</ele>
        <time>2011-08-27T19:16:02Z</time>
      </trkpt>
      <trkpt lat="59.367041" lon="17.8478874">
        <ele>41.474</ele>
        <time>2011-08-27T19:16:10Z</time>
      </trkpt>
      <trkpt lat="59.3672549" lon="17.849075">
        <ele>38.1094</ele>
        <time>2011-08-27T19:16:19Z</time>
      </trkpt>
      <trkpt lat="59.3674687" lon="17.8502002">
        <ele>36.1868</ele>
        <time>2011-08-27T19:16:27Z</time>
      </trkpt>
      <trkpt lat="59.3676637" lon="17.8513671">
        <ele>34.7449</ele>
        <time>2011-08-27T19:16:35Z</time>
      </trkpt>
      <trkpt lat="59.3677527" lon="17.8523199">
        <ele>32.8223</ele>
        <time>2011-08-27T19:16:41Z</time>
      </trkpt>
      <trkpt lat="59.36778" lon="17.8534047">
        <ele>29.9381</ele>
        <time>2011-08-27T19:16:47Z</time>
      </trkpt>
      <trkpt lat="59.3677165" lon="17.8544941">
        <ele>27.0543</ele>
        <time>2011-08-27T19:16:52Z</time>
      </trkpt>
      <trkpt lat="59.3675575" lon="17.8553757">
        <ele>25.6123</ele>
        <time>2011-08-27T19:16:56Z</time>
      </trkpt>
      <trkpt lat="59.3673051" lon="17.8561959">
        <ele>24.651</ele>
        <time>2011-08-27T19:17:00Z</time>
      </trkpt>
      <trkpt lat="59.3669815" lon="17.8569061">
        <ele>22.7283</ele>
        <time>2011-08-27T19:17:04Z</time>
      </trkpt>
      <trkpt lat="59.3664302" lon="17.85779">
        <ele>19.8444</ele>
        <time>2011-08-27T19:17:10Z</time>
      </trkpt>
      <trkpt lat="59.3659826" lon="17.8583142">
        <ele>17.9218</ele>
        <time>2011-08-27T19:17:15Z</time>
      </trkpt>
      <trkpt lat="59.3657745" lon="17.8587613">
        <ele>17.4412</ele>
        <time>2011-08-27T19:17:19Z</time>
      </trkpt>
      <trkpt lat="59.3657786" lon="17.8589077">
        <ele>17.4412</ele>
        <time>2011-08-27T19:17:20Z</time>
      </trkpt>
      <trkpt lat="59.3658144" lon="17.8592255">
        <ele>16.9604</ele>
        <time>2011-08-27T19:17:22Z</time>
      </trkpt>
      <trkpt lat="59.3658172" lon="17.8597598">
        <ele>17.9218</ele>
        <time>2011-08-27T19:17:25Z</time>
      </trkpt>
      <trkpt lat="59.3658907" lon="17.8604323">
        <ele>18.8831</ele>
        <time>2011-08-27T19:17:29Z</time>
      </trkpt>
      <trkpt lat="59.3660753" lon="17.8608042">
        <ele>18.4023</ele>
        <time>2011-08-27T19:17:32Z</time>
      </trkpt>
      <trkpt lat="59.3661581" lon="17.8610978">
        <ele>18.4023</ele>
        <time>2011-08-27T19:17:34Z</time>
      </trkpt>
      <trkpt lat="59.3661203" lon="17.8614026">
        <ele>18.4023</ele>
        <time>2011-08-27T19:17:36Z</time>
      </trkpt>
      <trkpt lat="59.3659819" lon="17.8615357">
        <ele>17.9218</ele>
        <time>2011-08-27T19:17:38Z</time>
      </trkpt>
      <trkpt lat="59.3656654" lon="17.8617083">
        <ele>16.9604</ele>
        <time>2011-08-27T19:17:42Z</time>
      </trkpt>
      <trkpt lat="59.365317" lon="17.8621978">
        <ele>16.4797</ele>
        <time>2011-08-27T19:17:47Z</time>
      </trkpt>
      <trkpt lat="59.3652041" lon="17.8626139">
        <ele>16.9604</ele>
        <time>2011-08-27T19:17:50Z</time>
      </trkpt>
      <trkpt lat="59.3651731" lon="17.86292">
        <ele>16.9604</ele>
        <time>2011-08-27T19:17:52Z</time>
      </trkpt>
      <trkpt lat="59.36516" lon="17.8637488">
        <ele>18.8831</ele>
        <time>2011-08-27T19:17:58Z</time>
      </trkpt>
      <trkpt lat="59.3651318" lon="17.8644786">
        <ele>21.2864</ele>
        <time>2011-08-27T19:18:04Z</time>
      </trkpt>
      <trkpt lat="59.3649873" lon="17.8649028">
        <ele>23.209</ele>
        <time>2011-08-27T19:18:08Z</time>
      </trkpt>
      <trkpt lat="59.3646458" lon="17.8654689">
        <ele>25.6123</ele>
        <time>2011-08-27T19:18:15Z</time>
      </trkpt>
      <trkpt lat="59.3643798" lon="17.8659166">
        <ele>26.5736</ele>
        <time>2011-08-27T19:18:21Z</time>
      </trkpt>
      <trkpt lat="59.3639891" lon="17.8666077">
        <ele>27.5349</ele>
        <time>2011-08-27T19:18:30Z</time>
      </trkpt>
      <trkpt lat="59.363722" lon="17.8671363">
        <ele>27.5349</ele>
        <time>2011-08-27T19:18:36Z</time>
      </trkpt>
      <trkpt lat="59.3635615" lon="17.8679482">
        <ele>28.0155</ele>
        <time>2011-08-27T19:18:43Z</time>
      </trkpt>
      <trkpt lat="59.3634981" lon="17.8685253">
        <ele>28.4962</ele>
        <time>2011-08-27T19:18:48Z</time>
      </trkpt>
      <trkpt lat="59.3633569" lon="17.8693075">
        <ele>32.3416</ele>
        <time>2011-08-27T19:18:55Z</time>
      </trkpt>
      <trkpt lat="59.363273" lon="17.869933">
        <ele>37.6287</ele>
        <time>2011-08-27T19:19:01Z</time>
      </trkpt>
      <trkpt lat="59.3632605" lon="17.8700405">
        <ele>37.1481</ele>
        <time>2011-08-27T19:19:02Z</time>
      </trkpt>
      <trkpt lat="59.3633064" lon="17.8706403">
        <ele>35.2255</ele>
        <time>2011-08-27T19:19:07Z</time>
      </trkpt>
      <trkpt lat="59.3634511" lon="17.8709483">
        <ele>33.7834</ele>
        <time>2011-08-27T19:19:10Z</time>
      </trkpt>
      <trkpt lat="59.3638324" lon="17.8716829">
        <ele>31.3801</ele>
        <time>2011-08-27T19:19:17Z</time>
      </trkpt>
      <trkpt lat="59.3640961" lon="17.8721721">
        <ele>31.8607</ele>
        <time>2011-08-27T19:19:22Z</time>
      </trkpt>
      <trkpt lat="59.3642336" lon="17.8724676">
        <ele>31.3801</ele>
        <time>2011-08-27T19:19:27Z</time>
      </trkpt>
      <trkpt lat="59.3642517" lon="17.8725146">
        <ele>30.4188</ele>
        <time>2011-08-27T19:19:28Z</time>
      </trkpt>
      <trkpt lat="59.3644063" lon="17.8725627">
        <ele>30.8995</ele>
        <time>2011-08-27T19:19:32Z</time>
      </trkpt>
      <trkpt lat="59.3644457" lon="17.872522">
        <ele>29.4575</ele>
        <time>2011-08-27T19:19:33Z</time>
      </trkpt>
      <trkpt lat="59.3646276" lon="17.8723789">
        <ele>27.5349</ele>
        <time>2011-08-27T19:19:36Z</time>
      </trkpt>
      <trkpt lat="59.3649018" lon="17.8721803">
        <ele>27.0543</ele>
        <time>2011-08-27T19:19:40Z</time>
      </trkpt>
      <trkpt lat="59.3653332" lon="17.8720385">
        <ele>24.651</ele>
        <time>2011-08-27T19:19:45Z</time>
      </trkpt>
      <trkpt lat="59.3657064" lon="17.8721056">
        <ele>21.2864</ele>
        <time>2011-08-27T19:19:49Z</time>
      </trkpt>
      <trkpt lat="59.3662152" lon="17.8723172">
        <ele>18.4023</ele>
        <time>2011-08-27T19:19:54Z</time>
      </trkpt>
      <trkpt lat="59.3668038" lon="17.8725961">
        <ele>18.4023</ele>
        <time>2011-08-27T19:20:00Z</time>
      </trkpt>
      <trkpt lat="59.3671904" lon="17.8727222">
        <ele>18.4023</ele>
        <time>2011-08-27T19:20:04Z</time>
      </trkpt>
      <trkpt lat="59.3673583" lon="17.8728318">
        <ele>18.8831</ele>
        <time>2011-08-27T19:20:06Z</time>
      </trkpt>
      <trkpt lat="59.3675204" lon="17.8730884">
        <ele>19.8444</ele>
        <time>2011-08-27T19:20:09Z</time>
      </trkpt>
      <trkpt lat="59.3675536" lon="17.8733614">
        <ele>20.325</ele>
        <time>2011-08-27T19:20:11Z</time>
      </trkpt>
      <trkpt lat="59.367639" lon="17.8744487">
        <ele>24.1703</ele>
        <time>2011-08-27T19:20:18Z</time>
      </trkpt>
      <trkpt lat="59.3677509" lon="17.8753256">
        <ele>26.5736</ele>
        <time>2011-08-27T19:20:24Z</time>
      </trkpt>
      <trkpt lat="59.3678296" lon="17.8760034">
        <ele>27.5349</ele>
        <time>2011-08-27T19:20:29Z</time>
      </trkpt>
      <trkpt lat="59.3679626" lon="17.8770676">
        <ele>29.9381</ele>
        <time>2011-08-27T19:20:38Z</time>
      </trkpt>
      <trkpt lat="59.368151" lon="17.8777749">
        <ele>31.3801</ele>
        <time>2011-08-27T19:20:45Z</time>
      </trkpt>
      <trkpt lat="59.3683697" lon="17.8784113">
        <ele>30.4188</ele>
        <time>2011-08-27T19:20:52Z</time>
      </trkpt>
      <trkpt lat="59.3686187" lon="17.8788623">
        <ele>28.4962</ele>
        <time>2011-08-27T19:20:57Z</time>
      </trkpt>
      <trkpt lat="59.368909" lon="17.8791776">
        <ele>26.0929</ele>
        <time>2011-08-27T19:21:01Z</time>
      </trkpt>
      <trkpt lat="59.3689955" lon="17.8792409">
        <ele>25.6123</ele>
        <time>2011-08-27T19:21:02Z</time>
      </trkpt>
      <trkpt lat="59.3696078" lon="17.8794573">
        <ele>21.2864</ele>
        <time>2011-08-27T19:21:08Z</time>
      </trkpt>
      <trkpt lat="59.3704266" lon="17.8797014">
        <ele>15.0377</ele>
        <time>2011-08-27T19:21:15Z</time>
      </trkpt>
      <trkpt lat="59.3708877" lon="17.8799349">
        <ele>15.5184</ele>
        <time>2011-08-27T19:21:19Z</time>
      </trkpt>
      <trkpt lat="59.370986" lon="17.880021">
        <ele>15.999</ele>
        <time>2011-08-27T19:21:20Z</time>
      </trkpt>
      <trkpt lat="59.371234" lon="17.8803433">
        <ele>17.4412</ele>
        <time>2011-08-27T19:21:23Z</time>
      </trkpt>
      <trkpt lat="59.371375" lon="17.8805689">
        <ele>17.4412</ele>
        <time>2011-08-27T19:21:25Z</time>
      </trkpt>
      <trkpt lat="59.3716365" lon="17.8809689">
        <ele>18.8831</ele>
        <time>2011-08-27T19:21:29Z</time>
      </trkpt>
      <trkpt lat="59.3719975" lon="17.8813937">
        <ele>19.8444</ele>
        <time>2011-08-27T19:21:34Z</time>
      </trkpt>
      <trkpt lat="59.3724765" lon="17.8817657">
        <ele>19.3638</ele>
        <time>2011-08-27T19:21:40Z</time>
      </trkpt>
      <trkpt lat="59.3734078" lon="17.8824437">
        <ele>17.9218</ele>
        <time>2011-08-27T19:21:51Z</time>
      </trkpt>
      <trkpt lat="59.3739606" lon="17.8828306">
        <ele>17.9218</ele>
        <time>2011-08-27T19:21:58Z</time>
      </trkpt>
      <trkpt lat="59.3745249" lon="17.8831185">
        <ele>17.4412</ele>
        <time>2011-08-27T19:22:05Z</time>
      </trkpt>
      <trkpt lat="59.3750219" lon="17.883388">
        <ele>18.4023</ele>
        <time>2011-08-27T19:22:12Z</time>
      </trkpt>
      <trkpt lat="59.3754156" lon="17.8835563">
        <ele>18.8831</ele>
        <time>2011-08-27T19:22:18Z</time>
      </trkpt>
      <trkpt lat="59.375558" lon="17.8837459">
        <ele>18.8831</ele>
        <time>2011-08-27T19:22:21Z</time>
      </trkpt>
      <trkpt lat="59.3755754" lon="17.883982">
        <ele>19.3638</ele>
        <time>2011-08-27T19:22:23Z</time>
      </trkpt>
      <trkpt lat="59.3755679" lon="17.8850141">
        <ele>20.325</ele>
        <time>2011-08-27T19:22:31Z</time>
      </trkpt>
      <trkpt lat="59.3755362" lon="17.8858289">
        <ele>19.3638</ele>
        <time>2011-08-27T19:22:37Z</time>
      </trkpt>
      <trkpt lat="59.3754359" lon="17.8869111">
        <ele>17.9218</ele>
        <time>2011-08-27T19:22:44Z</time>
      </trkpt>
      <trkpt lat="59.3753089" lon="17.8877569">
        <ele>16.4797</ele>
        <time>2011-08-27T19:22:49Z</time>
      </trkpt>
      <trkpt lat="59.3751007" lon="17.8883097">
        <ele>16.4797</ele>
        <time>2011-08-27T19:22:53Z</time>
      </trkpt>
      <trkpt lat="59.3748248" lon="17.8886224">
        <ele>15.999</ele>
        <time>2011-08-27T19:22:57Z</time>
      </trkpt>
      <trkpt lat="59.3747528" lon="17.8886689">
        <ele>16.4797</ele>
        <time>2011-08-27T19:22:58Z</time>
      </trkpt>
      <trkpt lat="59.3742749" lon="17.88898">
        <ele>16.4797</ele>
        <time>2011-08-27T19:23:05Z</time>
      </trkpt>
      <trkpt lat="59.3738564" lon="17.8892317">
        <ele>16.4797</ele>
        <time>2011-08-27T19:23:11Z</time>
      </trkpt>
      <trkpt lat="59.3736143" lon="17.8894652">
        <ele>16.9604</ele>
        <time>2011-08-27T19:23:15Z</time>
      </trkpt>
      <trkpt lat="59.3734627" lon="17.8897034">
        <ele>16.9604</ele>
        <time>2011-08-27T19:23:18Z</time>
      </trkpt>
      <trkpt lat="59.3732879" lon="17.8900372">
        <ele>16.9604</ele>
        <time>2011-08-27T19:23:22Z</time>
      </trkpt>
      <trkpt lat="59.3731839" lon="17.8903326">
        <ele>17.4412</ele>
        <time>2011-08-27T19:23:25Z</time>
      </trkpt>
      <trkpt lat="59.3730318" lon="17.8912173">
        <ele>17.9218</ele>
        <time>2011-08-27T19:23:32Z</time>
      </trkpt>
      <trkpt lat="59.3728499" lon="17.8922579">
        <ele>18.8831</ele>
        <time>2011-08-27T19:23:40Z</time>
      </trkpt>
      <trkpt lat="59.3726338" lon="17.8932445">
        <ele>19.3638</ele>
        <time>2011-08-27T19:23:48Z</time>
      </trkpt>
      <trkpt lat="59.3723479" lon="17.8942471">
        <ele>20.325</ele>
        <time>2011-08-27T19:23:57Z</time>
      </trkpt>
      <trkpt lat="59.3721267" lon="17.8947982">
        <ele>20.8057</ele>
        <time>2011-08-27T19:24:03Z</time>
      </trkpt>
      <trkpt lat="59.3719035" lon="17.8952159">
        <ele>21.2864</ele>
        <time>2011-08-27T19:24:08Z</time>
      </trkpt>
      <trkpt lat="59.3717165" lon="17.8954763">
        <ele>20.8057</ele>
        <time>2011-08-27T19:24:12Z</time>
      </trkpt>
      <trkpt lat="59.3715731" lon="17.8956141">
        <ele>20.8057</ele>
        <time>2011-08-27T19:24:15Z</time>
      </trkpt>
      <trkpt lat="59.3714999" lon="17.8958669">
        <ele>20.8057</ele>
        <time>2011-08-27T19:24:19Z</time>
      </trkpt>
      <trkpt lat="59.3715994" lon="17.8961031">
        <ele>20.8057</ele>
        <time>2011-08-27T19:24:22Z</time>
      </trkpt>
      <trkpt lat="59.371919" lon="17.8967009">
        <ele>21.2864</ele>
        <time>2011-08-27T19:24:28Z</time>
      </trkpt>
      <trkpt lat="59.3721806" lon="17.8974283">
        <ele>22.7283</ele>
        <time>2011-08-27T19:24:34Z</time>
      </trkpt>
      <trkpt lat="59.3724479" lon="17.8982767">
        <ele>24.1703</ele>
        <time>2011-08-27T19:24:41Z</time>
      </trkpt>
      <trkpt lat="59.3726914" lon="17.8991501">
        <ele>25.6123</ele>
        <time>2011-08-27T19:24:49Z</time>
      </trkpt>
      <trkpt lat="59.3727078" lon="17.8992558">
        <ele>26.0929</ele>
        <time>2011-08-27T19:24:50Z</time>
      </trkpt>
      <trkpt lat="59.3727198" lon="17.8995712">
        <ele>26.5736</ele>
        <time>2011-08-27T19:24:53Z</time>
      </trkpt>
      <trkpt lat="59.3728385" lon="17.9000103">
        <ele>26.0929</ele>
        <time>2011-08-27T19:24:57Z</time>
      </trkpt>
      <trkpt lat="59.3729535" lon="17.9002299">
        <ele>25.6123</ele>
        <time>2011-08-27T19:24:59Z</time>
      </trkpt>
      <trkpt lat="59.3733202" lon="17.9012604">
        <ele>23.6896</ele>
        <time>2011-08-27T19:25:06Z</time>
      </trkpt>
      <trkpt lat="59.3737378" lon="17.9025161">
        <ele>20.8057</ele>
        <time>2011-08-27T19:25:13Z</time>
      </trkpt>
      <trkpt lat="59.374068" lon="17.9031417">
        <ele>19.8444</ele>
        <time>2011-08-27T19:25:17Z</time>
      </trkpt>
      <trkpt lat="59.3741628" lon="17.9032685">
        <ele>19.3638</ele>
        <time>2011-08-27T19:25:18Z</time>
      </trkpt>
      <trkpt lat="59.3745879" lon="17.9036339">
        <ele>17.9218</ele>
        <time>2011-08-27T19:25:22Z</time>
      </trkpt>
      <trkpt lat="59.3751699" lon="17.9037659">
        <ele>15.5184</ele>
        <time>2011-08-27T19:25:27Z</time>
      </trkpt>
      <trkpt lat="59.3752922" lon="17.9037407">
        <ele>15.0377</ele>
        <time>2011-08-27T19:25:28Z</time>
      </trkpt>
      <trkpt lat="59.3757808" lon="17.9034297">
        <ele>13.1151</ele>
        <time>2011-08-27T19:25:32Z</time>
      </trkpt>
      <trkpt lat="59.3763853" lon="17.9028793">
        <ele>10.7118</ele>
        <time>2011-08-27T19:25:37Z</time>
      </trkpt>
      <trkpt lat="59.376881" lon="17.9028243">
        <ele>9.2699</ele>
        <time>2011-08-27T19:25:41Z</time>
      </trkpt>
      <trkpt lat="59.3771108" lon="17.9029802">
        <ele>8.78918</ele>
        <time>2011-08-27T19:25:43Z</time>
      </trkpt>
      <trkpt lat="59.377816" lon="17.9038452">
        <ele>5.90527</ele>
        <time>2011-08-27T19:25:50Z</time>
      </trkpt>
      <trkpt lat="59.3782832" lon="17.9044389">
        <ele>4.46326</ele>
        <time>2011-08-27T19:25:55Z</time>
      </trkpt>
      <trkpt lat="59.3783646" lon="17.9045613">
        <ele>4.46326</ele>
        <time>2011-08-27T19:25:56Z</time>
      </trkpt>
      <trkpt lat="59.3785502" lon="17.9049976">
        <ele>4.46326</ele>
        <time>2011-08-27T19:25:59Z</time>
      </trkpt>
      <trkpt lat="59.3788123" lon="17.9053351">
        <ele>3.98267</ele>
        <time>2011-08-27T19:26:03Z</time>
      </trkpt>
      <trkpt lat="59.3789687" lon="17.9052703">
        <ele>3.98267</ele>
        <time>2011-08-27T19:26:05Z</time>
      </trkpt>
      <trkpt lat="59.379526" lon="17.904973">
        <ele>3.02124</ele>
        <time>2011-08-27T19:26:11Z</time>
      </trkpt>
      <trkpt lat="59.3801848" lon="17.9045347">
        <ele>3.02124</ele>
        <time>2011-08-27T19:26:18Z</time>
      </trkpt>
      <trkpt lat="59.3806181" lon="17.9038927">
        <ele>3.98267</ele>
        <time>2011-08-27T19:26:24Z</time>
      </trkpt>
      <trkpt lat="59.3810272" lon="17.9030294">
        <ele>4.46326</ele>
        <time>2011-08-27T19:26:31Z</time>
      </trkpt>
      <trkpt lat="59.3814069" lon="17.902137">
        <ele>3.50195</ele>
        <time>2011-08-27T19:26:38Z</time>
      </trkpt>
      <trkpt lat="59.3815581" lon="17.9017649">
        <ele>3.50195</ele>
        <time>2011-08-27T19:26:42Z</time>
      </trkpt>
      <trkpt lat="59.3817626" lon="17.9012759">
        <ele>3.50195</ele>
        <time>2011-08-27T19:26:46Z</time>
      </trkpt>
      <trkpt lat="59.3820117" lon="17.9005533">
        <ele>3.02124</ele>
        <time>2011-08-27T19:26:51Z</time>
      </trkpt>
      <trkpt lat="59.3820589" lon="17.9004067">
        <ele>3.50195</ele>
        <time>2011-08-27T19:26:52Z</time>
      </trkpt>
      <trkpt lat="59.382466" lon="17.8995173">
        <ele>3.50195</ele>
        <time>2011-08-27T19:26:59Z</time>
      </trkpt>
      <trkpt lat="59.3830656" lon="17.8981984">
        <ele>3.02124</ele>
        <time>2011-08-27T19:27:09Z</time>
      </trkpt>
      <trkpt lat="59.3835512" lon="17.8972715">
        <ele>2.54065</ele>
        <time>2011-08-27T19:27:16Z</time>
      </trkpt>
      <trkpt lat="59.3836245" lon="17.8971515">
        <ele>2.54065</ele>
        <time>2011-08-27T19:27:17Z</time>
      </trkpt>
      <trkpt lat="59.3842337" lon="17.8963177">
        <ele>2.06006</ele>
        <time>2011-08-27T19:27:25Z</time>
      </trkpt>
      <trkpt lat="59.3846937" lon="17.8954665">
        <ele>2.54065</ele>
        <time>2011-08-27T19:27:32Z</time>
      </trkpt>
      <trkpt lat="59.385107" lon="17.8946551">
        <ele>3.50195</ele>
        <time>2011-08-27T19:27:39Z</time>
      </trkpt>
      <trkpt lat="59.3855163" lon="17.8938579">
        <ele>3.50195</ele>
        <time>2011-08-27T19:27:46Z</time>
      </trkpt>
      <trkpt lat="59.3858315" lon="17.8930659">
        <ele>3.02124</ele>
        <time>2011-08-27T19:27:52Z</time>
      </trkpt>
      <trkpt lat="59.3860395" lon="17.8924984">
        <ele>3.02124</ele>
        <time>2011-08-27T19:27:56Z</time>
      </trkpt>
      <trkpt lat="59.3862639" lon="17.8919477">
        <ele>3.02124</ele>
        <time>2011-08-27T19:28:00Z</time>
      </trkpt>
      <trkpt lat="59.3866249" lon="17.8905868">
        <ele>3.98267</ele>
        <time>2011-08-27T19:28:09Z</time>
      </trkpt>
      <trkpt lat="59.3868251" lon="17.889525">
        <ele>4.46326</ele>
        <time>2011-08-27T19:28:16Z</time>
      </trkpt>
      <trkpt lat="59.3869387" lon="17.8884512">
        <ele>5.42456</ele>
        <time>2011-08-27T19:28:23Z</time>
      </trkpt>
      <trkpt lat="59.3870685" lon="17.8869748">
        <ele>5.90527</ele>
        <time>2011-08-27T19:28:33Z</time>
      </trkpt>
      <trkpt lat="59.3871077" lon="17.8865459">
        <ele>6.38586</ele>
        <time>2011-08-27T19:28:36Z</time>
      </trkpt>
      <trkpt lat="59.3872184" lon="17.8853949">
        <ele>6.86646</ele>
        <time>2011-08-27T19:28:44Z</time>
      </trkpt>
      <trkpt lat="59.3873728" lon="17.8844329">
        <ele>7.82788</ele>
        <time>2011-08-27T19:28:51Z</time>
      </trkpt>
      <trkpt lat="59.38755" lon="17.883262">
        <ele>8.30859</ele>
        <time>2011-08-27T19:28:59Z</time>
      </trkpt>
      <trkpt lat="59.3875972" lon="17.8821689">
        <ele>8.78918</ele>
        <time>2011-08-27T19:29:06Z</time>
      </trkpt>
      <trkpt lat="59.3875436" lon="17.8811026">
        <ele>9.75061</ele>
        <time>2011-08-27T19:29:13Z</time>
      </trkpt>
      <trkpt lat="59.3875202" lon="17.8808033">
        <ele>10.2312</ele>
        <time>2011-08-27T19:29:15Z</time>
      </trkpt>
      <trkpt lat="59.3875416" lon="17.8801967">
        <ele>10.2312</ele>
        <time>2011-08-27T19:29:19Z</time>
      </trkpt>
      <trkpt lat="59.3875453" lon="17.8798847">
        <ele>10.7118</ele>
        <time>2011-08-27T19:29:21Z</time>
      </trkpt>
      <trkpt lat="59.3875229" lon="17.8792605">
        <ele>11.1925</ele>
        <time>2011-08-27T19:29:25Z</time>
      </trkpt>
      <trkpt lat="59.3876337" lon="17.8782433">
        <ele>12.1538</ele>
        <time>2011-08-27T19:29:32Z</time>
      </trkpt>
      <trkpt lat="59.3878147" lon="17.8774625">
        <ele>13.1151</ele>
        <time>2011-08-27T19:29:38Z</time>
      </trkpt>
      <trkpt lat="59.388127" lon="17.8765613">
        <ele>15.0377</ele>
        <time>2011-08-27T19:29:46Z</time>
      </trkpt>
      <trkpt lat="59.3884658" lon="17.8756006">
        <ele>16.4797</ele>
        <time>2011-08-27T19:29:55Z</time>
      </trkpt>
      <trkpt lat="59.3887487" lon="17.87483">
        <ele>16.9604</ele>
        <time>2011-08-27T19:30:02Z</time>
      </trkpt>
      <trkpt lat="59.3890279" lon="17.8740728">
        <ele>17.9218</ele>
        <time>2011-08-27T19:30:09Z</time>
      </trkpt>
      <trkpt lat="59.3893102" lon="17.8734182">
        <ele>18.4023</ele>
        <time>2011-08-27T19:30:15Z</time>
      </trkpt>
      <trkpt lat="59.3897435" lon="17.8726284">
        <ele>18.4023</ele>
        <time>2011-08-27T19:30:23Z</time>
      </trkpt>
      <trkpt lat="59.3900923" lon="17.8722679">
        <ele>17.9218</ele>
        <time>2011-08-27T19:30:28Z</time>
      </trkpt>
      <trkpt lat="59.3905742" lon="17.8720069">
        <ele>17.4412</ele>
        <time>2011-08-27T19:30:34Z</time>
      </trkpt>
      <trkpt lat="59.3907341" lon="17.8719113">
        <ele>17.4412</ele>
        <time>2011-08-27T19:30:36Z</time>
      </trkpt>
      <trkpt lat="59.3911204" lon="17.8717054">
        <ele>16.9604</ele>
        <time>2011-08-27T19:30:41Z</time>
      </trkpt>
      <trkpt lat="59.3915469" lon="17.8713118">
        <ele>17.4412</ele>
        <time>2011-08-27T19:30:47Z</time>
      </trkpt>
      <trkpt lat="59.391812" lon="17.870845">
        <ele>17.9218</ele>
        <time>2011-08-27T19:30:52Z</time>
      </trkpt>
      <trkpt lat="59.3919451" lon="17.8705517">
        <ele>18.4023</ele>
        <time>2011-08-27T19:30:56Z</time>
      </trkpt>
      <trkpt lat="59.3920001" lon="17.8704037">
        <ele>18.4023</ele>
        <time>2011-08-27T19:31:00Z</time>
      </trkpt>
      <trkpt lat="59.3920256" lon="17.8703534">
        <ele>18.4023</ele>
        <time>2011-08-27T19:31:04Z</time>
      </trkpt>
      <trkpt lat="59.3921236" lon="17.8701726">
        <ele>18.4023</ele>
        <time>2011-08-27T19:31:09Z</time>
      </trkpt>
      <trkpt lat="59.3922367" lon="17.8698617">
        <ele>18.4023</ele>
        <time>2011-08-27T19:31:12Z</time>
      </trkpt>
      <trkpt lat="59.3925154" lon="17.8691848">
        <ele>17.9218</ele>
        <time>2011-08-27T19:31:17Z</time>
      </trkpt>
      <trkpt lat="59.3930212" lon="17.8679503">
        <ele>17.4412</ele>
        <time>2011-08-27T19:31:25Z</time>
      </trkpt>
      <trkpt lat="59.3932937" lon="17.8671265">
        <ele>17.9218</ele>
        <time>2011-08-27T19:31:30Z</time>
      </trkpt>
      <trkpt lat="59.3935366" lon="17.8659083">
        <ele>18.4023</ele>
        <time>2011-08-27T19:31:37Z</time>
      </trkpt>
      <trkpt lat="59.3938188" lon="17.8644128">
        <ele>18.8831</ele>
        <time>2011-08-27T19:31:46Z</time>
      </trkpt>
      <trkpt lat="59.3940775" lon="17.8629435">
        <ele>17.9218</ele>
        <time>2011-08-27T19:31:55Z</time>
      </trkpt>
      <trkpt lat="59.3942649" lon="17.8617274">
        <ele>16.9604</ele>
        <time>2011-08-27T19:32:02Z</time>
      </trkpt>
      <trkpt lat="59.3944021" lon="17.8602686">
        <ele>15.5184</ele>
        <time>2011-08-27T19:32:10Z</time>
      </trkpt>
      <trkpt lat="59.3944633" lon="17.8591807">
        <ele>14.557</ele>
        <time>2011-08-27T19:32:16Z</time>
      </trkpt>
      <trkpt lat="59.3944981" lon="17.8581536">
        <ele>14.0764</ele>
        <time>2011-08-27T19:32:22Z</time>
      </trkpt>
      <trkpt lat="59.3945564" lon="17.8575609">
        <ele>13.5958</ele>
        <time>2011-08-27T19:32:26Z</time>
      </trkpt>
      <trkpt lat="59.3946258" lon="17.8573466">
        <ele>13.5958</ele>
        <time>2011-08-27T19:32:30Z</time>
      </trkpt>
      <trkpt lat="59.394628" lon="17.8573493">
        <ele>13.5958</ele>
        <time>2011-08-27T19:32:33Z</time>
      </trkpt>
      <trkpt lat="59.3946276" lon="17.85735">
        <ele>13.5958</ele>
        <time>2011-08-27T19:32:36Z</time>
      </trkpt>
      <trkpt lat="59.3946271" lon="17.8573477">
        <ele>13.5958</ele>
        <time>2011-08-27T19:32:37Z</time>
      </trkpt>
      <trkpt lat="59.3946683" lon="17.8573004">
        <ele>13.5958</ele>
        <time>2011-08-27T19:32:40Z</time>
      </trkpt>
      <trkpt lat="59.3946903" lon="17.8572995">
        <ele>13.5958</ele>
        <time>2011-08-27T19:32:41Z</time>
      </trkpt>
      <trkpt lat="59.3947483" lon="17.8573684">
        <ele>13.5958</ele>
        <time>2011-08-27T19:32:43Z</time>
      </trkpt>
      <trkpt lat="59.3948079" lon="17.8575269">
        <ele>13.5958</ele>
        <time>2011-08-27T19:32:45Z</time>
      </trkpt>
      <trkpt lat="59.3950226" lon="17.8581442">
        <ele>13.1151</ele>
        <time>2011-08-27T19:32:51Z</time>
      </trkpt>
      <trkpt lat="59.3952952" lon="17.8589353">
        <ele>14.557</ele>
        <time>2011-08-27T19:32:58Z</time>
      </trkpt>
      <trkpt lat="59.3955755" lon="17.8594879">
        <ele>16.9604</ele>
        <time>2011-08-27T19:33:04Z</time>
      </trkpt>
      <trkpt lat="59.3958952" lon="17.8599082">
        <ele>18.8831</ele>
        <time>2011-08-27T19:33:10Z</time>
      </trkpt>
      <trkpt lat="59.3962827" lon="17.8601922">
        <ele>21.2864</ele>
        <time>2011-08-27T19:33:16Z</time>
      </trkpt>
      <trkpt lat="59.3967722" lon="17.8604594">
        <ele>23.6896</ele>
        <time>2011-08-27T19:33:24Z</time>
      </trkpt>
      <trkpt lat="59.3971035" lon="17.8606386">
        <ele>24.651</ele>
        <time>2011-08-27T19:33:29Z</time>
      </trkpt>
      <trkpt lat="59.3975989" lon="17.8609068">
        <ele>26.0929</ele>
        <time>2011-08-27T19:33:37Z</time>
      </trkpt>
      <trkpt lat="59.3982659" lon="17.8612771">
        <ele>25.6123</ele>
        <time>2011-08-27T19:33:47Z</time>
      </trkpt>
      <trkpt lat="59.3990239" lon="17.8617114">
        <ele>24.1703</ele>
        <time>2011-08-27T19:33:57Z</time>
      </trkpt>
      <trkpt lat="59.3996004" lon="17.8621424">
        <ele>21.767</ele>
        <time>2011-08-27T19:34:04Z</time>
      </trkpt>
      <trkpt lat="59.4000255" lon="17.8624915">
        <ele>19.8444</ele>
        <time>2011-08-27T19:34:09Z</time>
      </trkpt>
      <trkpt lat="59.4006552" lon="17.8629422">
        <ele>20.325</ele>
        <time>2011-08-27T19:34:17Z</time>
      </trkpt>
      <trkpt lat="59.4011333" lon="17.863052">
        <ele>18.8831</ele>
        <time>2011-08-27T19:34:23Z</time>
      </trkpt>
      <trkpt lat="59.4017629" lon="17.8631748">
        <ele>15.5184</ele>
        <time>2011-08-27T19:34:30Z</time>
      </trkpt>
      <trkpt lat="59.401952" lon="17.8632244">
        <ele>14.557</ele>
        <time>2011-08-27T19:34:32Z</time>
      </trkpt>
      <trkpt lat="59.4024288" lon="17.8635577">
        <ele>12.6344</ele>
        <time>2011-08-27T19:34:37Z</time>
      </trkpt>
      <trkpt lat="59.4027985" lon="17.8638754">
        <ele>12.1538</ele>
        <time>2011-08-27T19:34:41Z</time>
      </trkpt>
      <trkpt lat="59.4030562" lon="17.8640909">
        <ele>12.1538</ele>
        <time>2011-08-27T19:34:44Z</time>
      </trkpt>
      <trkpt lat="59.4035066" lon="17.864501">
        <ele>13.5958</ele>
        <time>2011-08-27T19:34:50Z</time>
      </trkpt>
      <trkpt lat="59.4035699" lon="17.864564">
        <ele>13.5958</ele>
        <time>2011-08-27T19:34:51Z</time>
      </trkpt>
      <trkpt lat="59.4037585" lon="17.8648007">
        <ele>15.0377</ele>
        <time>2011-08-27T19:34:55Z</time>
      </trkpt>
      <trkpt lat="59.4039412" lon="17.8648194">
        <ele>14.557</ele>
        <time>2011-08-27T19:34:59Z</time>
      </trkpt>
      <trkpt lat="59.4040539" lon="17.864677">
        <ele>14.0764</ele>
        <time>2011-08-27T19:35:01Z</time>
      </trkpt>
      <trkpt lat="59.4043936" lon="17.8643499">
        <ele>11.1925</ele>
        <time>2011-08-27T19:35:06Z</time>
      </trkpt>
      <trkpt lat="59.4046448" lon="17.8644729">
        <ele>9.75061</ele>
        <time>2011-08-27T19:35:09Z</time>
      </trkpt>
      <trkpt lat="59.4049907" lon="17.8645545">
        <ele>9.2699</ele>
        <time>2011-08-27T19:35:14Z</time>
      </trkpt>
      <trkpt lat="59.4051286" lon="17.86416">
        <ele>9.2699</ele>
        <time>2011-08-27T19:35:17Z</time>
      </trkpt>
      <trkpt lat="59.4051447" lon="17.8636447">
        <ele>8.30859</ele>
        <time>2011-08-27T19:35:20Z</time>
      </trkpt>
      <trkpt lat="59.405001" lon="17.8631526">
        <ele>7.82788</ele>
        <time>2011-08-27T19:35:23Z</time>
      </trkpt>
      <trkpt lat="59.4049287" lon="17.8630214">
        <ele>7.82788</ele>
        <time>2011-08-27T19:35:24Z</time>
      </trkpt>
      <trkpt lat="59.4047019" lon="17.8624532">
        <ele>8.78918</ele>
        <time>2011-08-27T19:35:28Z</time>
      </trkpt>
      <trkpt lat="59.4047116" lon="17.8621102">
        <ele>9.2699</ele>
        <time>2011-08-27T19:35:30Z</time>
      </trkpt>
      <trkpt lat="59.404792" lon="17.8618146">
        <ele>10.2312</ele>
        <time>2011-08-27T19:35:32Z</time>
      </trkpt>
      <trkpt lat="59.4050428" lon="17.8609696">
        <ele>12.6344</ele>
        <time>2011-08-27T19:35:38Z</time>
      </trkpt>
      <trkpt lat="59.4051262" lon="17.8603789">
        <ele>14.0764</ele>
        <time>2011-08-27T19:35:42Z</time>
      </trkpt>
      <trkpt lat="59.4051191" lon="17.8594811">
        <ele>15.0377</ele>
        <time>2011-08-27T19:35:48Z</time>
      </trkpt>
      <trkpt lat="59.404996" lon="17.8582931">
        <ele>15.5184</ele>
        <time>2011-08-27T19:35:56Z</time>
      </trkpt>
      <trkpt lat="59.4048841" lon="17.8571647">
        <ele>16.9604</ele>
        <time>2011-08-27T19:36:04Z</time>
      </trkpt>
      <trkpt lat="59.4048337" lon="17.8559749">
        <ele>16.4797</ele>
        <time>2011-08-27T19:36:12Z</time>
      </trkpt>
      <trkpt lat="59.4047902" lon="17.8549592">
        <ele>15.5184</ele>
        <time>2011-08-27T19:36:18Z</time>
      </trkpt>
      <trkpt lat="59.4047805" lon="17.8537002">
        <ele>14.557</ele>
        <time>2011-08-27T19:36:25Z</time>
      </trkpt>
      <trkpt lat="59.4047469" lon="17.8524038">
        <ele>15.0377</ele>
        <time>2011-08-27T19:36:32Z</time>
      </trkpt>
      <trkpt lat="59.4047363" lon="17.8520437">
        <ele>15.5184</ele>
        <time>2011-08-27T19:36:34Z</time>
      </trkpt>
      <trkpt lat="59.4047205" lon="17.8510606">
        <ele>17.4412</ele>
        <time>2011-08-27T19:36:40Z</time>
      </trkpt>
      <trkpt lat="59.4047521" lon="17.8501535">
        <ele>19.8444</ele>
        <time>2011-08-27T19:36:46Z</time>
      </trkpt>
      <trkpt lat="59.4048607" lon="17.8491123">
        <ele>21.2864</ele>
        <time>2011-08-27T19:36:53Z</time>
      </trkpt>
      <trkpt lat="59.4050421" lon="17.8480286">
        <ele>20.8057</ele>
        <time>2011-08-27T19:37:00Z</time>
      </trkpt>
      <trkpt lat="59.4053027" lon="17.8471755">
        <ele>21.767</ele>
        <time>2011-08-27T19:37:06Z</time>
      </trkpt>
      <trkpt lat="59.4055829" lon="17.8464139">
        <ele>22.2476</ele>
        <time>2011-08-27T19:37:12Z</time>
      </trkpt>
      <trkpt lat="59.405949" lon="17.8456282">
        <ele>22.7283</ele>
        <time>2011-08-27T19:37:19Z</time>
      </trkpt>
      <trkpt lat="59.4061508" lon="17.8451473">
        <ele>23.209</ele>
        <time>2011-08-27T19:37:23Z</time>
      </trkpt>
      <trkpt lat="59.4062854" lon="17.8444103">
        <ele>22.2476</ele>
        <time>2011-08-27T19:37:28Z</time>
      </trkpt>
      <trkpt lat="59.4062942" lon="17.8440752">
        <ele>21.767</ele>
        <time>2011-08-27T19:37:30Z</time>
      </trkpt>
      <trkpt lat="59.4062751" lon="17.8433385">
        <ele>20.8057</ele>
        <time>2011-08-27T19:37:34Z</time>
      </trkpt>
      <trkpt lat="59.4063718" lon="17.8426332">
        <ele>20.325</ele>
        <time>2011-08-27T19:37:38Z</time>
      </trkpt>
      <trkpt lat="59.4065374" lon="17.8422373">
        <ele>20.325</ele>
        <time>2011-08-27T19:37:41Z</time>
      </trkpt>
      <trkpt lat="59.4069337" lon="17.8418856">
        <ele>22.7283</ele>
        <time>2011-08-27T19:37:47Z</time>
      </trkpt>
      <trkpt lat="59.4071127" lon="17.841998">
        <ele>24.1703</ele>
        <time>2011-08-27T19:37:50Z</time>
      </trkpt>
      <trkpt lat="59.4072214" lon="17.8422731">
        <ele>25.1317</ele>
        <time>2011-08-27T19:37:53Z</time>
      </trkpt>
      <trkpt lat="59.4074508" lon="17.8430262">
        <ele>26.0929</ele>
        <time>2011-08-27T19:38:00Z</time>
      </trkpt>
      <trkpt lat="59.4076875" lon="17.8436541">
        <ele>27.0543</ele>
        <time>2011-08-27T19:38:06Z</time>
      </trkpt>
      <trkpt lat="59.4080704" lon="17.8444912">
        <ele>29.9381</ele>
        <time>2011-08-27T19:38:15Z</time>
      </trkpt>
      <trkpt lat="59.4084517" lon="17.8453412">
        <ele>30.8995</ele>
        <time>2011-08-27T19:38:24Z</time>
      </trkpt>
      <trkpt lat="59.4087656" lon="17.8460078">
        <ele>31.3801</ele>
        <time>2011-08-27T19:38:31Z</time>
      </trkpt>
      <trkpt lat="59.4088102" lon="17.8461111">
        <ele>31.3801</ele>
        <time>2011-08-27T19:38:32Z</time>
      </trkpt>
      <trkpt lat="59.4091086" lon="17.8467641">
        <ele>30.8995</ele>
        <time>2011-08-27T19:38:38Z</time>
      </trkpt>
      <trkpt lat="59.4094939" lon="17.8476258">
        <ele>30.4188</ele>
        <time>2011-08-27T19:38:45Z</time>
      </trkpt>
      <trkpt lat="59.4098423" lon="17.8484895">
        <ele>28.9769</ele>
        <time>2011-08-27T19:38:51Z</time>
      </trkpt>
      <trkpt lat="59.4103073" lon="17.8498225">
        <ele>23.209</ele>
        <time>2011-08-27T19:38:59Z</time>
      </trkpt>
      <trkpt lat="59.410874" lon="17.8514325">
        <ele>17.4412</ele>
        <time>2011-08-27T19:39:08Z</time>
      </trkpt>
      <trkpt lat="59.4109949" lon="17.8517875">
        <ele>16.4797</ele>
        <time>2011-08-27T19:39:10Z</time>
      </trkpt>
      <trkpt lat="59.4110764" lon="17.8523603">
        <ele>15.999</ele>
        <time>2011-08-27T19:39:13Z</time>
      </trkpt>
      <trkpt lat="59.4110719" lon="17.852906">
        <ele>15.0377</ele>
        <time>2011-08-27T19:39:16Z</time>
      </trkpt>
      <trkpt lat="59.4111607" lon="17.8532091">
        <ele>15.0377</ele>
        <time>2011-08-27T19:39:18Z</time>
      </trkpt>
      <trkpt lat="59.4112282" lon="17.8533377">
        <ele>15.0377</ele>
        <time>2011-08-27T19:39:19Z</time>
      </trkpt>
      <trkpt lat="59.4115224" lon="17.8541117">
        <ele>14.0764</ele>
        <time>2011-08-27T19:39:24Z</time>
      </trkpt>
      <trkpt lat="59.411593" lon="17.8546954">
        <ele>13.1151</ele>
        <time>2011-08-27T19:39:27Z</time>
      </trkpt>
      <trkpt lat="59.4115986" lon="17.8559626">
        <ele>10.2312</ele>
        <time>2011-08-27T19:39:33Z</time>
      </trkpt>
      <trkpt lat="59.4116887" lon="17.8566697">
        <ele>12.6344</ele>
        <time>2011-08-27T19:39:37Z</time>
      </trkpt>
      <trkpt lat="59.4117721" lon="17.8569408">
        <ele>13.5958</ele>
        <time>2011-08-27T19:39:39Z</time>
      </trkpt>
      <trkpt lat="59.4120392" lon="17.8576013">
        <ele>16.9604</ele>
        <time>2011-08-27T19:39:45Z</time>
      </trkpt>
      <trkpt lat="59.4122923" lon="17.8583239">
        <ele>20.325</ele>
        <time>2011-08-27T19:39:52Z</time>
      </trkpt>
      <trkpt lat="59.4124633" lon="17.8589828">
        <ele>22.7283</ele>
        <time>2011-08-27T19:39:58Z</time>
      </trkpt>
      <trkpt lat="59.4125424" lon="17.8594402">
        <ele>22.7283</ele>
        <time>2011-08-27T19:40:02Z</time>
      </trkpt>
      <trkpt lat="59.4125327" lon="17.8599587">
        <ele>21.767</ele>
        <time>2011-08-27T19:40:06Z</time>
      </trkpt>
      <trkpt lat="59.4126077" lon="17.8604734">
        <ele>21.2864</ele>
        <time>2011-08-27T19:40:10Z</time>
      </trkpt>
      <trkpt lat="59.4126642" lon="17.8605646">
        <ele>21.2864</ele>
        <time>2011-08-27T19:40:11Z</time>
      </trkpt>
      <trkpt lat="59.4128865" lon="17.8609484">
        <ele>20.8057</ele>
        <time>2011-08-27T19:40:15Z</time>
      </trkpt>
      <trkpt lat="59.4129977" lon="17.8611688">
        <ele>20.8057</ele>
        <time>2011-08-27T19:40:17Z</time>
      </trkpt>
      <trkpt lat="59.4133598" lon="17.8615845">
        <ele>20.325</ele>
        <time>2011-08-27T19:40:22Z</time>
      </trkpt>
      <trkpt lat="59.4137178" lon="17.8617534">
        <ele>19.8444</ele>
        <time>2011-08-27T19:40:26Z</time>
      </trkpt>
      <trkpt lat="59.4138136" lon="17.8617643">
        <ele>19.3638</ele>
        <time>2011-08-27T19:40:27Z</time>
      </trkpt>
      <trkpt lat="59.4144506" lon="17.8616834">
        <ele>19.3638</ele>
        <time>2011-08-27T19:40:34Z</time>
      </trkpt>
      <trkpt lat="59.4151035" lon="17.8614969">
        <ele>19.8444</ele>
        <time>2011-08-27T19:40:42Z</time>
      </trkpt>
      <trkpt lat="59.415638" lon="17.8611902">
        <ele>20.325</ele>
        <time>2011-08-27T19:40:49Z</time>
      </trkpt>
      <trkpt lat="59.4162081" lon="17.8607874">
        <ele>21.2864</ele>
        <time>2011-08-27T19:40:57Z</time>
      </trkpt>
      <trkpt lat="59.4167776" lon="17.8603924">
        <ele>21.767</ele>
        <time>2011-08-27T19:41:05Z</time>
      </trkpt>
      <trkpt lat="59.4173039" lon="17.8599481">
        <ele>22.7283</ele>
        <time>2011-08-27T19:41:13Z</time>
      </trkpt>
      <trkpt lat="59.4178829" lon="17.8593721">
        <ele>24.1703</ele>
        <time>2011-08-27T19:41:22Z</time>
      </trkpt>
      <trkpt lat="59.4183487" lon="17.8588332">
        <ele>24.651</ele>
        <time>2011-08-27T19:41:29Z</time>
      </trkpt>
      <trkpt lat="59.4188632" lon="17.8581154">
        <ele>25.6123</ele>
        <time>2011-08-27T19:41:37Z</time>
      </trkpt>
      <trkpt lat="59.4191311" lon="17.8580195">
        <ele>26.0929</ele>
        <time>2011-08-27T19:41:41Z</time>
      </trkpt>
      <trkpt lat="59.4192879" lon="17.85832">
        <ele>26.5736</ele>
        <time>2011-08-27T19:41:44Z</time>
      </trkpt>
      <trkpt lat="59.4196329" lon="17.8591698">
        <ele>28.0155</ele>
        <time>2011-08-27T19:41:52Z</time>
      </trkpt>
      <trkpt lat="59.419908" lon="17.8596886">
        <ele>28.9769</ele>
        <time>2011-08-27T19:41:58Z</time>
      </trkpt>
      <trkpt lat="59.4203586" lon="17.8602759">
        <ele>28.4962</ele>
        <time>2011-08-27T19:42:06Z</time>
      </trkpt>
      <trkpt lat="59.4205942" lon="17.8605856">
        <ele>28.4962</ele>
        <time>2011-08-27T19:42:10Z</time>
      </trkpt>
      <trkpt lat="59.4207425" lon="17.860878">
        <ele>28.4962</ele>
        <time>2011-08-27T19:42:13Z</time>
      </trkpt>
      <trkpt lat="59.4207882" lon="17.8609779">
        <ele>28.4962</ele>
        <time>2011-08-27T19:42:14Z</time>
      </trkpt>
      <trkpt lat="59.4210352" lon="17.8612339">
        <ele>28.0155</ele>
        <time>2011-08-27T19:42:18Z</time>
      </trkpt>
      <trkpt lat="59.4211134" lon="17.8612467">
        <ele>28.0155</ele>
        <time>2011-08-27T19:42:19Z</time>
      </trkpt>
      <trkpt lat="59.4217618" lon="17.8612538">
        <ele>27.5349</ele>
        <time>2011-08-27T19:42:27Z</time>
      </trkpt>
      <trkpt lat="59.4221255" lon="17.8613337">
        <ele>27.0543</ele>
        <time>2011-08-27T19:42:32Z</time>
      </trkpt>
      <trkpt lat="59.4223426" lon="17.8611146">
        <ele>26.5736</ele>
        <time>2011-08-27T19:42:36Z</time>
      </trkpt>
      <trkpt lat="59.422368" lon="17.8608309">
        <ele>25.6123</ele>
        <time>2011-08-27T19:42:38Z</time>
      </trkpt>
      <trkpt lat="59.4223792" lon="17.8596428">
        <ele>22.7283</ele>
        <time>2011-08-27T19:42:45Z</time>
      </trkpt>
      <trkpt lat="59.4224424" lon="17.8582424">
        <ele>20.8057</ele>
        <time>2011-08-27T19:42:52Z</time>
      </trkpt>
      <trkpt lat="59.4224918" lon="17.857012">
        <ele>20.325</ele>
        <time>2011-08-27T19:42:58Z</time>
      </trkpt>
      <trkpt lat="59.4225002" lon="17.8566438">
        <ele>19.8444</ele>
        <time>2011-08-27T19:43:01Z</time>
      </trkpt>
      <trkpt lat="59.4225053" lon="17.8565053">
        <ele>19.8444</ele>
        <time>2011-08-27T19:43:03Z</time>
      </trkpt>
      <trkpt lat="59.4225628" lon="17.8563061">
        <ele>19.8444</ele>
        <time>2011-08-27T19:43:07Z</time>
      </trkpt>
      <trkpt lat="59.4227657" lon="17.8560494">
        <ele>20.325</ele>
        <time>2011-08-27T19:43:12Z</time>
      </trkpt>
      <trkpt lat="59.4229005" lon="17.8560323">
        <ele>20.8057</ele>
        <time>2011-08-27T19:43:14Z</time>
      </trkpt>
      <trkpt lat="59.4234065" lon="17.8558402">
        <ele>20.8057</ele>
        <time>2011-08-27T19:43:21Z</time>
      </trkpt>
      <trkpt lat="59.4241323" lon="17.8554083">
        <ele>20.8057</ele>
        <time>2011-08-27T19:43:31Z</time>
      </trkpt>
      <trkpt lat="59.4246995" lon="17.854926">
        <ele>19.8444</ele>
        <time>2011-08-27T19:43:39Z</time>
      </trkpt>
      <trkpt lat="59.4250306" lon="17.8545318">
        <ele>19.8444</ele>
        <time>2011-08-27T19:43:44Z</time>
      </trkpt>
      <trkpt lat="59.4253077" lon="17.8540345">
        <ele>20.325</ele>
        <time>2011-08-27T19:43:49Z</time>
      </trkpt>
      <trkpt lat="59.4255201" lon="17.8534129">
        <ele>20.325</ele>
        <time>2011-08-27T19:43:54Z</time>
      </trkpt>
      <trkpt lat="59.4256512" lon="17.8525405">
        <ele>20.8057</ele>
        <time>2011-08-27T19:44:00Z</time>
      </trkpt>
      <trkpt lat="59.425704" lon="17.8519127">
        <ele>21.2864</ele>
        <time>2011-08-27T19:44:04Z</time>
      </trkpt>
      <trkpt lat="59.4256823" lon="17.8509583">
        <ele>21.767</ele>
        <time>2011-08-27T19:44:10Z</time>
      </trkpt>
      <trkpt lat="59.4256543" lon="17.8506772">
        <ele>21.767</ele>
        <time>2011-08-27T19:44:12Z</time>
      </trkpt>
      <trkpt lat="59.4256796" lon="17.8499981">
        <ele>23.6896</ele>
        <time>2011-08-27T19:44:16Z</time>
      </trkpt>
      <trkpt lat="59.4255946" lon="17.8485737">
        <ele>23.6896</ele>
        <time>2011-08-27T19:44:25Z</time>
      </trkpt>
      <trkpt lat="59.4255583" lon="17.8479064">
        <ele>23.6896</ele>
        <time>2011-08-27T19:44:30Z</time>
      </trkpt>
      <trkpt lat="59.425674" lon="17.8474103">
        <ele>23.6896</ele>
        <time>2011-08-27T19:44:34Z</time>
      </trkpt>
      <trkpt lat="59.4258878" lon="17.847219">
        <ele>23.6896</ele>
        <time>2011-08-27T19:44:37Z</time>
      </trkpt>
      <trkpt lat="59.4267151" lon="17.8468306">
        <ele>24.651</ele>
        <time>2011-08-27T19:44:48Z</time>
      </trkpt>
      <trkpt lat="59.4273749" lon="17.8465902">
        <ele>26.5736</ele>
        <time>2011-08-27T19:44:57Z</time>
      </trkpt>
      <trkpt lat="59.4279371" lon="17.8464226">
        <ele>27.0543</ele>
        <time>2011-08-27T19:45:05Z</time>
      </trkpt>
      <trkpt lat="59.4284335" lon="17.8462699">
        <ele>26.5736</ele>
        <time>2011-08-27T19:45:12Z</time>
      </trkpt>
      <trkpt lat="59.4289197" lon="17.8460865">
        <ele>26.5736</ele>
        <time>2011-08-27T19:45:19Z</time>
      </trkpt>
      <trkpt lat="59.4292753" lon="17.8459354">
        <ele>25.1317</ele>
        <time>2011-08-27T19:45:24Z</time>
      </trkpt>
      <trkpt lat="59.429851" lon="17.8458225">
        <ele>23.6896</ele>
        <time>2011-08-27T19:45:31Z</time>
      </trkpt>
      <trkpt lat="59.4305009" lon="17.8457692">
        <ele>21.767</ele>
        <time>2011-08-27T19:45:38Z</time>
      </trkpt>
      <trkpt lat="59.4311935" lon="17.8457204">
        <ele>19.3638</ele>
        <time>2011-08-27T19:45:45Z</time>
      </trkpt>
      <trkpt lat="59.4317476" lon="17.8456796">
        <ele>19.8444</ele>
        <time>2011-08-27T19:45:51Z</time>
      </trkpt>
      <trkpt lat="59.4322252" lon="17.845623">
        <ele>21.767</ele>
        <time>2011-08-27T19:45:57Z</time>
      </trkpt>
      <trkpt lat="59.4327125" lon="17.8454876">
        <ele>23.209</ele>
        <time>2011-08-27T19:46:04Z</time>
      </trkpt>
      <trkpt lat="59.4327809" lon="17.8454552">
        <ele>23.6896</ele>
        <time>2011-08-27T19:46:05Z</time>
      </trkpt>
      <trkpt lat="59.4330954" lon="17.8452392">
        <ele>24.651</ele>
        <time>2011-08-27T19:46:10Z</time>
      </trkpt>
      <trkpt lat="59.4336807" lon="17.8447259">
        <ele>25.6123</ele>
        <time>2011-08-27T19:46:20Z</time>
      </trkpt>
      <trkpt lat="59.4343155" lon="17.8441817">
        <ele>27.5349</ele>
        <time>2011-08-27T19:46:31Z</time>
      </trkpt>
      <trkpt lat="59.4347122" lon="17.8438587">
        <ele>30.4188</ele>
        <time>2011-08-27T19:46:38Z</time>
      </trkpt>
      <trkpt lat="59.4350484" lon="17.8436485">
        <ele>31.8607</ele>
        <time>2011-08-27T19:46:44Z</time>
      </trkpt>
      <trkpt lat="59.4354769" lon="17.8435001">
        <ele>34.2642</ele>
        <time>2011-08-27T19:46:52Z</time>
      </trkpt>
      <trkpt lat="59.4357967" lon="17.8434744">
        <ele>35.7061</ele>
        <time>2011-08-27T19:46:58Z</time>
      </trkpt>
      <trkpt lat="59.4362694" lon="17.8434053">
        <ele>37.1481</ele>
        <time>2011-08-27T19:47:07Z</time>
      </trkpt>
      <trkpt lat="59.4365266" lon="17.8432946">
        <ele>37.6287</ele>
        <time>2011-08-27T19:47:12Z</time>
      </trkpt>
      <trkpt lat="59.4369375" lon="17.8429403">
        <ele>38.5901</ele>
        <time>2011-08-27T19:47:20Z</time>
      </trkpt>
      <trkpt lat="59.4373701" lon="17.842461">
        <ele>40.0321</ele>
        <time>2011-08-27T19:47:28Z</time>
      </trkpt>
      <trkpt lat="59.4377413" lon="17.8419488">
        <ele>39.5513</ele>
        <time>2011-08-27T19:47:35Z</time>
      </trkpt>
      <trkpt lat="59.4380714" lon="17.8414969">
        <ele>39.5513</ele>
        <time>2011-08-27T19:47:41Z</time>
      </trkpt>
      <trkpt lat="59.4385268" lon="17.8409962">
        <ele>38.5901</ele>
        <time>2011-08-27T19:47:48Z</time>
      </trkpt>
      <trkpt lat="59.4390159" lon="17.8406893">
        <ele>36.6675</ele>
        <time>2011-08-27T19:47:54Z</time>
      </trkpt>
      <trkpt lat="59.4398321" lon="17.8403467">
        <ele>34.2642</ele>
        <time>2011-08-27T19:48:03Z</time>
      </trkpt>
      <trkpt lat="59.440465" lon="17.8399762">
        <ele>32.8223</ele>
        <time>2011-08-27T19:48:10Z</time>
      </trkpt>
      <trkpt lat="59.4410708" lon="17.8396088">
        <ele>31.8607</ele>
        <time>2011-08-27T19:48:17Z</time>
      </trkpt>
      <trkpt lat="59.4411595" lon="17.8395643">
        <ele>31.8607</ele>
        <time>2011-08-27T19:48:18Z</time>
      </trkpt>
      <trkpt lat="59.4417053" lon="17.8393795">
        <ele>30.8995</ele>
        <time>2011-08-27T19:48:24Z</time>
      </trkpt>
      <trkpt lat="59.4424197" lon="17.8391964">
        <ele>30.4188</ele>
        <time>2011-08-27T19:48:32Z</time>
      </trkpt>
      <trkpt lat="59.4429909" lon="17.8390723">
        <ele>30.8995</ele>
        <time>2011-08-27T19:48:39Z</time>
      </trkpt>
      <trkpt lat="59.4435596" lon="17.8390615">
        <ele>30.8995</ele>
        <time>2011-08-27T19:48:46Z</time>
      </trkpt>
      <trkpt lat="59.4441467" lon="17.8392809">
        <ele>30.4188</ele>
        <time>2011-08-27T19:48:53Z</time>
      </trkpt>
      <trkpt lat="59.4446408" lon="17.839436">
        <ele>29.9381</ele>
        <time>2011-08-27T19:48:59Z</time>
      </trkpt>
      <trkpt lat="59.445089" lon="17.8394749">
        <ele>31.3801</ele>
        <time>2011-08-27T19:49:05Z</time>
      </trkpt>
      <trkpt lat="59.4455577" lon="17.8393194">
        <ele>32.8223</ele>
        <time>2011-08-27T19:49:12Z</time>
      </trkpt>
      <trkpt lat="59.4460171" lon="17.8390426">
        <ele>32.3416</ele>
        <time>2011-08-27T19:49:19Z</time>
      </trkpt>
      <trkpt lat="59.4466082" lon="17.8386186">
        <ele>30.4188</ele>
        <time>2011-08-27T19:49:27Z</time>
      </trkpt>
      <trkpt lat="59.4471868" lon="17.8381041">
        <ele>29.4575</ele>
        <time>2011-08-27T19:49:34Z</time>
      </trkpt>
      <trkpt lat="59.4477552" lon="17.8375971">
        <ele>29.9381</ele>
        <time>2011-08-27T19:49:41Z</time>
      </trkpt>
      <trkpt lat="59.4483439" lon="17.8370132">
        <ele>30.8995</ele>
        <time>2011-08-27T19:49:49Z</time>
      </trkpt>
      <trkpt lat="59.4489373" lon="17.8364396">
        <ele>30.8995</ele>
        <time>2011-08-27T19:49:57Z</time>
      </trkpt>
      <trkpt lat="59.4496163" lon="17.8357788">
        <ele>30.8995</ele>
        <time>2011-08-27T19:50:06Z</time>
      </trkpt>
      <trkpt lat="59.449692" lon="17.8356988">
        <ele>30.8995</ele>
        <time>2011-08-27T19:50:07Z</time>
      </trkpt>
      <trkpt lat="59.4503074" lon="17.8350466">
        <ele>30.8995</ele>
        <time>2011-08-27T19:50:15Z</time>
      </trkpt>
      <trkpt lat="59.4507632" lon="17.8345388">
        <ele>30.8995</ele>
        <time>2011-08-27T19:50:21Z</time>
      </trkpt>
      <trkpt lat="59.4511363" lon="17.8338181">
        <ele>30.4188</ele>
        <time>2011-08-27T19:50:27Z</time>
      </trkpt>
      <trkpt lat="59.4516395" lon="17.8326344">
        <ele>29.9381</ele>
        <time>2011-08-27T19:50:36Z</time>
      </trkpt>
      <trkpt lat="59.4522875" lon="17.8311668">
        <ele>28.4962</ele>
        <time>2011-08-27T19:50:47Z</time>
      </trkpt>
      <trkpt lat="59.4528394" lon="17.8301849">
        <ele>28.0155</ele>
        <time>2011-08-27T19:50:55Z</time>
      </trkpt>
      <trkpt lat="59.4533565" lon="17.8293682">
        <ele>27.5349</ele>
        <time>2011-08-27T19:51:02Z</time>
      </trkpt>
      <trkpt lat="59.4540153" lon="17.8286692">
        <ele>26.5736</ele>
        <time>2011-08-27T19:51:10Z</time>
      </trkpt>
      <trkpt lat="59.4546343" lon="17.8282166">
        <ele>25.1317</ele>
        <time>2011-08-27T19:51:17Z</time>
      </trkpt>
      <trkpt lat="59.4555502" lon="17.8276626">
        <ele>22.7283</ele>
        <time>2011-08-27T19:51:27Z</time>
      </trkpt>
      <trkpt lat="59.4563727" lon="17.8272083">
        <ele>21.2864</ele>
        <time>2011-08-27T19:51:36Z</time>
      </trkpt>
      <trkpt lat="59.4564593" lon="17.8271539">
        <ele>21.2864</ele>
        <time>2011-08-27T19:51:37Z</time>
      </trkpt>
      <trkpt lat="59.4566406" lon="17.8268187">
        <ele>21.2864</ele>
        <time>2011-08-27T19:51:40Z</time>
      </trkpt>
      <trkpt lat="59.4566634" lon="17.8265074">
        <ele>20.8057</ele>
        <time>2011-08-27T19:51:42Z</time>
      </trkpt>
      <trkpt lat="59.4566834" lon="17.825873">
        <ele>21.767</ele>
        <time>2011-08-27T19:51:46Z</time>
      </trkpt>
      <trkpt lat="59.4567363" lon="17.824885">
        <ele>20.325</ele>
        <time>2011-08-27T19:51:52Z</time>
      </trkpt>
      <trkpt lat="59.456846" lon="17.8236262">
        <ele>19.8444</ele>
        <time>2011-08-27T19:51:59Z</time>
      </trkpt>
      <trkpt lat="59.4570291" lon="17.8224388">
        <ele>20.325</ele>
        <time>2011-08-27T19:52:06Z</time>
      </trkpt>
      <trkpt lat="59.4572211" lon="17.8214506">
        <ele>20.325</ele>
        <time>2011-08-27T19:52:12Z</time>
      </trkpt>
      <trkpt lat="59.4574633" lon="17.8202783">
        <ele>19.3638</ele>
        <time>2011-08-27T19:52:19Z</time>
      </trkpt>
      <trkpt lat="59.4575388" lon="17.8197317">
        <ele>18.8831</ele>
        <time>2011-08-27T19:52:22Z</time>
      </trkpt>
      <trkpt lat="59.4575259" lon="17.8186316">
        <ele>19.3638</ele>
        <time>2011-08-27T19:52:28Z</time>
      </trkpt>
      <trkpt lat="59.4575295" lon="17.8184594">
        <ele>19.3638</ele>
        <time>2011-08-27T19:52:29Z</time>
      </trkpt>
      <trkpt lat="59.4576469" lon="17.8179002">
        <ele>19.8444</ele>
        <time>2011-08-27T19:52:33Z</time>
      </trkpt>
      <trkpt lat="59.4576954" lon="17.8174894">
        <ele>19.3638</ele>
        <time>2011-08-27T19:52:36Z</time>
      </trkpt>
      <trkpt lat="59.45757" lon="17.8170707">
        <ele>19.3638</ele>
        <time>2011-08-27T19:52:39Z</time>
      </trkpt>
      <trkpt lat="59.4571478" lon="17.8161931">
        <ele>17.9218</ele>
        <time>2011-08-27T19:52:46Z</time>
      </trkpt>
      <trkpt lat="59.4567297" lon="17.8155397">
        <ele>16.9604</ele>
        <time>2011-08-27T19:52:52Z</time>
      </trkpt>
      <trkpt lat="59.4563148" lon="17.814781">
        <ele>16.9604</ele>
        <time>2011-08-27T19:52:58Z</time>
      </trkpt>
      <trkpt lat="59.4559382" lon="17.8140302">
        <ele>17.9218</ele>
        <time>2011-08-27T19:53:04Z</time>
      </trkpt>
      <trkpt lat="59.4555905" lon="17.8131183">
        <ele>17.9218</ele>
        <time>2011-08-27T19:53:11Z</time>
      </trkpt>
      <trkpt lat="59.4553312" lon="17.8120538">
        <ele>18.4023</ele>
        <time>2011-08-27T19:53:18Z</time>
      </trkpt>
      <trkpt lat="59.455073" lon="17.8109614">
        <ele>18.4023</ele>
        <time>2011-08-27T19:53:25Z</time>
      </trkpt>
      <trkpt lat="59.4549662" lon="17.8105194">
        <ele>18.4023</ele>
        <time>2011-08-27T19:53:28Z</time>
      </trkpt>
      <trkpt lat="59.4547996" lon="17.8099454">
        <ele>18.4023</ele>
        <time>2011-08-27T19:53:32Z</time>
      </trkpt>
      <trkpt lat="59.4545245" lon="17.809291">
        <ele>18.4023</ele>
        <time>2011-08-27T19:53:37Z</time>
      </trkpt>
      <trkpt lat="59.4541214" lon="17.8085282">
        <ele>16.9604</ele>
        <time>2011-08-27T19:53:43Z</time>
      </trkpt>
      <trkpt lat="59.4537128" lon="17.8078766">
        <ele>16.4797</ele>
        <time>2011-08-27T19:53:49Z</time>
      </trkpt>
      <trkpt lat="59.4535026" lon="17.8074465">
        <ele>16.4797</ele>
        <time>2011-08-27T19:53:53Z</time>
      </trkpt>
      <trkpt lat="59.4533921" lon="17.8070903">
        <ele>17.4412</ele>
        <time>2011-08-27T19:53:56Z</time>
      </trkpt>
      <trkpt lat="59.4533993" lon="17.8067116">
        <ele>17.4412</ele>
        <time>2011-08-27T19:53:59Z</time>
      </trkpt>
      <trkpt lat="59.4535071" lon="17.8064996">
        <ele>17.4412</ele>
        <time>2011-08-27T19:54:01Z</time>
      </trkpt>
      <trkpt lat="59.4539242" lon="17.8058138">
        <ele>18.4023</ele>
        <time>2011-08-27T19:54:07Z</time>
      </trkpt>
      <trkpt lat="59.454557" lon="17.804772">
        <ele>18.4023</ele>
        <time>2011-08-27T19:54:16Z</time>
      </trkpt>
      <trkpt lat="59.4546332" lon="17.804667">
        <ele>18.4023</ele>
        <time>2011-08-27T19:54:17Z</time>
      </trkpt>
      <trkpt lat="59.4550788" lon="17.8043703">
        <ele>18.8831</ele>
        <time>2011-08-27T19:54:22Z</time>
      </trkpt>
      <trkpt lat="59.4554096" lon="17.8044185">
        <ele>19.8444</ele>
        <time>2011-08-27T19:54:26Z</time>
      </trkpt>
      <trkpt lat="59.4554847" lon="17.8044667">
        <ele>20.325</ele>
        <time>2011-08-27T19:54:27Z</time>
      </trkpt>
      <trkpt lat="59.455961" lon="17.8048555">
        <ele>21.767</ele>
        <time>2011-08-27T19:54:34Z</time>
      </trkpt>
      <trkpt lat="59.4565391" lon="17.8052997">
        <ele>22.2476</ele>
        <time>2011-08-27T19:54:42Z</time>
      </trkpt>
      <trkpt lat="59.456887" lon="17.8055563">
        <ele>22.2476</ele>
        <time>2011-08-27T19:54:47Z</time>
      </trkpt>
      <trkpt lat="59.4571612" lon="17.8054853">
        <ele>22.7283</ele>
        <time>2011-08-27T19:54:51Z</time>
      </trkpt>
      <trkpt lat="59.4572224" lon="17.8053826">
        <ele>23.209</ele>
        <time>2011-08-27T19:54:52Z</time>
      </trkpt>
      <trkpt lat="59.4576217" lon="17.8047798">
        <ele>23.209</ele>
        <time>2011-08-27T19:54:58Z</time>
      </trkpt>
      <trkpt lat="59.4577601" lon="17.8046195">
        <ele>22.7283</ele>
        <time>2011-08-27T19:55:00Z</time>
      </trkpt>
      <trkpt lat="59.4580779" lon="17.8044267">
        <ele>22.2476</ele>
        <time>2011-08-27T19:55:04Z</time>
      </trkpt>
      <trkpt lat="59.458161" lon="17.8044096">
        <ele>21.767</ele>
        <time>2011-08-27T19:55:05Z</time>
      </trkpt>
      <trkpt lat="59.4587152" lon="17.8044609">
        <ele>21.767</ele>
        <time>2011-08-27T19:55:12Z</time>
      </trkpt>
      <trkpt lat="59.4589116" lon="17.8043848">
        <ele>23.209</ele>
        <time>2011-08-27T19:55:15Z</time>
      </trkpt>
    </trkseg>
  </trk>
</gpx>